<?xml version="1.0" encoding="UTF-8" standalone="no" ?>
<gpx xmlns="http://www.topografix.com/GPX/1/1" xmlns:xsi="http://www.w3.org/2001/XMLSchema-instance" xsi:schemaLocation="http://www.topografix.com/GPX/1/1 http://www.topografix.com/GPX/1/1/gpx.xsd" version="1.1" creator="VisuGPX - https://www.visugpx.com">
  <metadata>
    <name>64 - VTT - Laroin - voie verte d'Abos à Pau et retour</name>
    <desc><![CDATA[soleil et chaleur]]></desc>
  </metadata>
  <trk>
    <name><![CDATA[ACTIVE LOG]]></name>
    <trkseg>
      <trkpt lat="43.35814" lon="-0.56449">
        <ele>120.302124</ele>
        <time>2014-09-03T07:38:41Z</time>
      </trkpt>
      <trkpt lat="43.35814" lon="-0.56448">
        <ele>120.302124</ele>
        <time>2014-09-03T07:38:42Z</time>
      </trkpt>
      <trkpt lat="43.35814" lon="-0.56448">
        <ele>121.26355</ele>
        <time>2014-09-03T07:38:44Z</time>
      </trkpt>
      <trkpt lat="43.35814" lon="-0.5645">
        <ele>120.782837</ele>
        <time>2014-09-03T07:39:10Z</time>
      </trkpt>
      <trkpt lat="43.35814" lon="-0.5645">
        <ele>120.782837</ele>
        <time>2014-09-03T07:39:23Z</time>
      </trkpt>
      <trkpt lat="43.3582" lon="-0.5645">
        <ele>121.26355</ele>
        <time>2014-09-03T07:39:28Z</time>
      </trkpt>
      <trkpt lat="43.35826" lon="-0.56444">
        <ele>120.782837</ele>
        <time>2014-09-03T07:39:32Z</time>
      </trkpt>
      <trkpt lat="43.35828" lon="-0.56394">
        <ele>121.744141</ele>
        <time>2014-09-03T07:39:44Z</time>
      </trkpt>
      <trkpt lat="43.35829" lon="-0.56308">
        <ele>122.224731</ele>
        <time>2014-09-03T07:40:00Z</time>
      </trkpt>
      <trkpt lat="43.3583" lon="-0.56303">
        <ele>122.705444</ele>
        <time>2014-09-03T07:40:01Z</time>
      </trkpt>
      <trkpt lat="43.35849" lon="-0.56223">
        <ele>122.705444</ele>
        <time>2014-09-03T07:40:16Z</time>
      </trkpt>
      <trkpt lat="43.3586" lon="-0.56215">
        <ele>122.224731</ele>
        <time>2014-09-03T07:40:19Z</time>
      </trkpt>
      <trkpt lat="43.35876" lon="-0.56203">
        <ele>122.224731</ele>
        <time>2014-09-03T07:40:23Z</time>
      </trkpt>
      <trkpt lat="43.35941" lon="-0.56157">
        <ele>121.744141</ele>
        <time>2014-09-03T07:40:38Z</time>
      </trkpt>
      <trkpt lat="43.36033" lon="-0.56109">
        <ele>121.744141</ele>
        <time>2014-09-03T07:40:57Z</time>
      </trkpt>
      <trkpt lat="43.36088" lon="-0.56076">
        <ele>122.705444</ele>
        <time>2014-09-03T07:41:11Z</time>
      </trkpt>
      <trkpt lat="43.36114" lon="-0.56062">
        <ele>122.224731</ele>
        <time>2014-09-03T07:41:21Z</time>
      </trkpt>
      <trkpt lat="43.36188" lon="-0.56015">
        <ele>122.224731</ele>
        <time>2014-09-03T07:41:38Z</time>
      </trkpt>
      <trkpt lat="43.363" lon="-0.55932">
        <ele>121.744141</ele>
        <time>2014-09-03T07:42:03Z</time>
      </trkpt>
      <trkpt lat="43.36423" lon="-0.55839">
        <ele>122.224731</ele>
        <time>2014-09-03T07:42:31Z</time>
      </trkpt>
      <trkpt lat="43.36515" lon="-0.55792">
        <ele>121.744141</ele>
        <time>2014-09-03T07:42:50Z</time>
      </trkpt>
      <trkpt lat="43.36643" lon="-0.55732">
        <ele>121.744141</ele>
        <time>2014-09-03T07:43:15Z</time>
      </trkpt>
      <trkpt lat="43.36679" lon="-0.55702">
        <ele>120.302124</ele>
        <time>2014-09-03T07:43:23Z</time>
      </trkpt>
      <trkpt lat="43.36681" lon="-0.55681">
        <ele>120.782837</ele>
        <time>2014-09-03T07:43:27Z</time>
      </trkpt>
      <trkpt lat="43.36658" lon="-0.55647">
        <ele>121.26355</ele>
        <time>2014-09-03T07:43:34Z</time>
      </trkpt>
      <trkpt lat="43.3664" lon="-0.55617">
        <ele>121.26355</ele>
        <time>2014-09-03T07:43:40Z</time>
      </trkpt>
      <trkpt lat="43.36635" lon="-0.55607">
        <ele>121.744141</ele>
        <time>2014-09-03T07:43:42Z</time>
      </trkpt>
      <trkpt lat="43.36616" lon="-0.55569">
        <ele>122.224731</ele>
        <time>2014-09-03T07:43:49Z</time>
      </trkpt>
      <trkpt lat="43.36605" lon="-0.55541">
        <ele>121.744141</ele>
        <time>2014-09-03T07:43:54Z</time>
      </trkpt>
      <trkpt lat="43.36582" lon="-0.55495">
        <ele>121.744141</ele>
        <time>2014-09-03T07:44:03Z</time>
      </trkpt>
      <trkpt lat="43.36537" lon="-0.55414">
        <ele>122.224731</ele>
        <time>2014-09-03T07:44:19Z</time>
      </trkpt>
      <trkpt lat="43.36506" lon="-0.55353">
        <ele>121.26355</ele>
        <time>2014-09-03T07:44:30Z</time>
      </trkpt>
      <trkpt lat="43.36496" lon="-0.55337">
        <ele>121.744141</ele>
        <time>2014-09-03T07:44:33Z</time>
      </trkpt>
      <trkpt lat="43.36437" lon="-0.55269">
        <ele>122.224731</ele>
        <time>2014-09-03T07:44:50Z</time>
      </trkpt>
      <trkpt lat="43.36429" lon="-0.55263">
        <ele>122.224731</ele>
        <time>2014-09-03T07:44:52Z</time>
      </trkpt>
      <trkpt lat="43.36367" lon="-0.55188">
        <ele>122.224731</ele>
        <time>2014-09-03T07:45:10Z</time>
      </trkpt>
      <trkpt lat="43.36332" lon="-0.55152">
        <ele>121.744141</ele>
        <time>2014-09-03T07:45:19Z</time>
      </trkpt>
      <trkpt lat="43.3628" lon="-0.55076">
        <ele>122.705444</ele>
        <time>2014-09-03T07:45:35Z</time>
      </trkpt>
      <trkpt lat="43.36269" lon="-0.55049">
        <ele>122.224731</ele>
        <time>2014-09-03T07:45:40Z</time>
      </trkpt>
      <trkpt lat="43.36258" lon="-0.54987">
        <ele>121.744141</ele>
        <time>2014-09-03T07:45:50Z</time>
      </trkpt>
      <trkpt lat="43.36262" lon="-0.54897">
        <ele>121.744141</ele>
        <time>2014-09-03T07:46:05Z</time>
      </trkpt>
      <trkpt lat="43.36255" lon="-0.54861">
        <ele>121.26355</ele>
        <time>2014-09-03T07:46:17Z</time>
      </trkpt>
      <trkpt lat="43.36255" lon="-0.54861">
        <ele>121.26355</ele>
        <time>2014-09-03T07:46:29Z</time>
      </trkpt>
      <trkpt lat="43.36254" lon="-0.54863">
        <ele>120.782837</ele>
        <time>2014-09-03T07:47:26Z</time>
      </trkpt>
      <trkpt lat="43.36255" lon="-0.54864">
        <ele>120.302124</ele>
        <time>2014-09-03T07:48:03Z</time>
      </trkpt>
      <trkpt lat="43.36247" lon="-0.54842">
        <ele>120.782837</ele>
        <time>2014-09-03T07:48:21Z</time>
      </trkpt>
      <trkpt lat="43.36221" lon="-0.54779">
        <ele>122.224731</ele>
        <time>2014-09-03T07:48:34Z</time>
      </trkpt>
      <trkpt lat="43.36211" lon="-0.54719">
        <ele>121.744141</ele>
        <time>2014-09-03T07:48:43Z</time>
      </trkpt>
      <trkpt lat="43.3621" lon="-0.54636">
        <ele>122.705444</ele>
        <time>2014-09-03T07:48:55Z</time>
      </trkpt>
      <trkpt lat="43.36207" lon="-0.546">
        <ele>123.186157</ele>
        <time>2014-09-03T07:49:01Z</time>
      </trkpt>
      <trkpt lat="43.36207" lon="-0.54582">
        <ele>123.666748</ele>
        <time>2014-09-03T07:49:04Z</time>
      </trkpt>
      <trkpt lat="43.36196" lon="-0.54512">
        <ele>122.224731</ele>
        <time>2014-09-03T07:49:14Z</time>
      </trkpt>
      <trkpt lat="43.36183" lon="-0.54491">
        <ele>122.224731</ele>
        <time>2014-09-03T07:49:18Z</time>
      </trkpt>
      <trkpt lat="43.36131" lon="-0.54431">
        <ele>122.224731</ele>
        <time>2014-09-03T07:49:32Z</time>
      </trkpt>
      <trkpt lat="43.36073" lon="-0.5433">
        <ele>123.186157</ele>
        <time>2014-09-03T07:49:51Z</time>
      </trkpt>
      <trkpt lat="43.36052" lon="-0.54301">
        <ele>123.186157</ele>
        <time>2014-09-03T07:49:57Z</time>
      </trkpt>
      <trkpt lat="43.36026" lon="-0.54267">
        <ele>122.705444</ele>
        <time>2014-09-03T07:50:05Z</time>
      </trkpt>
      <trkpt lat="43.36001" lon="-0.54217">
        <ele>122.224731</ele>
        <time>2014-09-03T07:50:14Z</time>
      </trkpt>
      <trkpt lat="43.35937" lon="-0.54143">
        <ele>123.666748</ele>
        <time>2014-09-03T07:50:30Z</time>
      </trkpt>
      <trkpt lat="43.35893" lon="-0.54097">
        <ele>124.147339</ele>
        <time>2014-09-03T07:50:41Z</time>
      </trkpt>
      <trkpt lat="43.35871" lon="-0.53985">
        <ele>124.147339</ele>
        <time>2014-09-03T07:50:57Z</time>
      </trkpt>
      <trkpt lat="43.35854" lon="-0.53932">
        <ele>124.628052</ele>
        <time>2014-09-03T07:51:05Z</time>
      </trkpt>
      <trkpt lat="43.3583" lon="-0.53896">
        <ele>124.628052</ele>
        <time>2014-09-03T07:51:12Z</time>
      </trkpt>
      <trkpt lat="43.35773" lon="-0.53823">
        <ele>125.589355</ele>
        <time>2014-09-03T07:51:27Z</time>
      </trkpt>
      <trkpt lat="43.35751" lon="-0.53782">
        <ele>125.589355</ele>
        <time>2014-09-03T07:51:34Z</time>
      </trkpt>
      <trkpt lat="43.35717" lon="-0.5372">
        <ele>125.108765</ele>
        <time>2014-09-03T07:51:44Z</time>
      </trkpt>
      <trkpt lat="43.3571" lon="-0.53684">
        <ele>125.108765</ele>
        <time>2014-09-03T07:51:49Z</time>
      </trkpt>
      <trkpt lat="43.3571" lon="-0.53668">
        <ele>125.589355</ele>
        <time>2014-09-03T07:51:51Z</time>
      </trkpt>
      <trkpt lat="43.35706" lon="-0.5364">
        <ele>126.069946</ele>
        <time>2014-09-03T07:51:55Z</time>
      </trkpt>
      <trkpt lat="43.35692" lon="-0.53502">
        <ele>126.550659</ele>
        <time>2014-09-03T07:52:15Z</time>
      </trkpt>
      <trkpt lat="43.3563" lon="-0.53379">
        <ele>127.031372</ele>
        <time>2014-09-03T07:52:36Z</time>
      </trkpt>
      <trkpt lat="43.35575" lon="-0.53276">
        <ele>127.511963</ele>
        <time>2014-09-03T07:52:54Z</time>
      </trkpt>
      <trkpt lat="43.3555" lon="-0.53163">
        <ele>127.511963</ele>
        <time>2014-09-03T07:53:10Z</time>
      </trkpt>
      <trkpt lat="43.35531" lon="-0.53066">
        <ele>127.511963</ele>
        <time>2014-09-03T07:53:24Z</time>
      </trkpt>
      <trkpt lat="43.35524" lon="-0.53047">
        <ele>127.992554</ele>
        <time>2014-09-03T07:53:27Z</time>
      </trkpt>
      <trkpt lat="43.35509" lon="-0.53016">
        <ele>127.031372</ele>
        <time>2014-09-03T07:53:32Z</time>
      </trkpt>
      <trkpt lat="43.35505" lon="-0.52939">
        <ele>127.511963</ele>
        <time>2014-09-03T07:53:43Z</time>
      </trkpt>
      <trkpt lat="43.35506" lon="-0.5277">
        <ele>127.992554</ele>
        <time>2014-09-03T07:54:07Z</time>
      </trkpt>
      <trkpt lat="43.35483" lon="-0.52637">
        <ele>127.511963</ele>
        <time>2014-09-03T07:54:27Z</time>
      </trkpt>
      <trkpt lat="43.35465" lon="-0.52492">
        <ele>127.992554</ele>
        <time>2014-09-03T07:54:48Z</time>
      </trkpt>
      <trkpt lat="43.35473" lon="-0.52361">
        <ele>128.473389</ele>
        <time>2014-09-03T07:55:07Z</time>
      </trkpt>
      <trkpt lat="43.3551" lon="-0.5223">
        <ele>128.473389</ele>
        <time>2014-09-03T07:55:27Z</time>
      </trkpt>
      <trkpt lat="43.35545" lon="-0.52185">
        <ele>128.473389</ele>
        <time>2014-09-03T07:55:36Z</time>
      </trkpt>
      <trkpt lat="43.35584" lon="-0.52184">
        <ele>127.511963</ele>
        <time>2014-09-03T07:55:43Z</time>
      </trkpt>
      <trkpt lat="43.35607" lon="-0.52195">
        <ele>127.511963</ele>
        <time>2014-09-03T07:55:47Z</time>
      </trkpt>
      <trkpt lat="43.3564" lon="-0.52166">
        <ele>127.992554</ele>
        <time>2014-09-03T07:55:55Z</time>
      </trkpt>
      <trkpt lat="43.35643" lon="-0.52152">
        <ele>127.992554</ele>
        <time>2014-09-03T07:55:57Z</time>
      </trkpt>
      <trkpt lat="43.35646" lon="-0.521">
        <ele>127.992554</ele>
        <time>2014-09-03T07:56:04Z</time>
      </trkpt>
      <trkpt lat="43.35607" lon="-0.51996">
        <ele>128.954102</ele>
        <time>2014-09-03T07:56:20Z</time>
      </trkpt>
      <trkpt lat="43.35563" lon="-0.51916">
        <ele>128.473389</ele>
        <time>2014-09-03T07:56:33Z</time>
      </trkpt>
      <trkpt lat="43.35542" lon="-0.51896">
        <ele>128.473389</ele>
        <time>2014-09-03T07:56:38Z</time>
      </trkpt>
      <trkpt lat="43.35481" lon="-0.51821">
        <ele>129.434692</ele>
        <time>2014-09-03T07:56:53Z</time>
      </trkpt>
      <trkpt lat="43.35477" lon="-0.51816">
        <ele>129.915283</ele>
        <time>2014-09-03T07:56:54Z</time>
      </trkpt>
      <trkpt lat="43.35464" lon="-0.51792">
        <ele>129.434692</ele>
        <time>2014-09-03T07:56:58Z</time>
      </trkpt>
      <trkpt lat="43.35449" lon="-0.51773">
        <ele>130.395996</ele>
        <time>2014-09-03T07:57:02Z</time>
      </trkpt>
      <trkpt lat="43.35436" lon="-0.51748">
        <ele>129.915283</ele>
        <time>2014-09-03T07:57:06Z</time>
      </trkpt>
      <trkpt lat="43.35428" lon="-0.51681">
        <ele>132.318604</ele>
        <time>2014-09-03T07:57:16Z</time>
      </trkpt>
      <trkpt lat="43.3541" lon="-0.5166">
        <ele>131.3573</ele>
        <time>2014-09-03T07:57:21Z</time>
      </trkpt>
      <trkpt lat="43.35394" lon="-0.51649">
        <ele>130.876709</ele>
        <time>2014-09-03T07:57:24Z</time>
      </trkpt>
      <trkpt lat="43.35369" lon="-0.51628">
        <ele>131.3573</ele>
        <time>2014-09-03T07:57:29Z</time>
      </trkpt>
      <trkpt lat="43.35355" lon="-0.51621">
        <ele>130.876709</ele>
        <time>2014-09-03T07:57:32Z</time>
      </trkpt>
      <trkpt lat="43.35328" lon="-0.51609">
        <ele>130.395996</ele>
        <time>2014-09-03T07:57:37Z</time>
      </trkpt>
      <trkpt lat="43.35271" lon="-0.51548">
        <ele>129.915283</ele>
        <time>2014-09-03T07:57:49Z</time>
      </trkpt>
      <trkpt lat="43.35238" lon="-0.51503">
        <ele>129.915283</ele>
        <time>2014-09-03T07:57:57Z</time>
      </trkpt>
      <trkpt lat="43.35214" lon="-0.51498">
        <ele>128.954102</ele>
        <time>2014-09-03T07:58:02Z</time>
      </trkpt>
      <trkpt lat="43.35163" lon="-0.5151">
        <ele>130.876709</ele>
        <time>2014-09-03T07:58:13Z</time>
      </trkpt>
      <trkpt lat="43.35137" lon="-0.51515">
        <ele>130.876709</ele>
        <time>2014-09-03T07:58:18Z</time>
      </trkpt>
      <trkpt lat="43.35112" lon="-0.51501">
        <ele>130.876709</ele>
        <time>2014-09-03T07:58:23Z</time>
      </trkpt>
      <trkpt lat="43.351" lon="-0.51485">
        <ele>131.3573</ele>
        <time>2014-09-03T07:58:26Z</time>
      </trkpt>
      <trkpt lat="43.35083" lon="-0.51466">
        <ele>130.876709</ele>
        <time>2014-09-03T07:58:30Z</time>
      </trkpt>
      <trkpt lat="43.35068" lon="-0.5143">
        <ele>131.837891</ele>
        <time>2014-09-03T07:58:36Z</time>
      </trkpt>
      <trkpt lat="43.35066" lon="-0.51415">
        <ele>131.837891</ele>
        <time>2014-09-03T07:58:38Z</time>
      </trkpt>
      <trkpt lat="43.35037" lon="-0.51401">
        <ele>131.3573</ele>
        <time>2014-09-03T07:58:45Z</time>
      </trkpt>
      <trkpt lat="43.35032" lon="-0.51406">
        <ele>130.876709</ele>
        <time>2014-09-03T07:58:46Z</time>
      </trkpt>
      <trkpt lat="43.35017" lon="-0.5142">
        <ele>130.876709</ele>
        <time>2014-09-03T07:58:49Z</time>
      </trkpt>
      <trkpt lat="43.34985" lon="-0.51414">
        <ele>130.876709</ele>
        <time>2014-09-03T07:58:55Z</time>
      </trkpt>
      <trkpt lat="43.34951" lon="-0.51391">
        <ele>131.837891</ele>
        <time>2014-09-03T07:59:02Z</time>
      </trkpt>
      <trkpt lat="43.3485" lon="-0.51314">
        <ele>131.3573</ele>
        <time>2014-09-03T07:59:22Z</time>
      </trkpt>
      <trkpt lat="43.3484" lon="-0.51306">
        <ele>131.837891</ele>
        <time>2014-09-03T07:59:24Z</time>
      </trkpt>
      <trkpt lat="43.34803" lon="-0.51292">
        <ele>131.837891</ele>
        <time>2014-09-03T07:59:31Z</time>
      </trkpt>
      <trkpt lat="43.34733" lon="-0.51265">
        <ele>131.837891</ele>
        <time>2014-09-03T07:59:44Z</time>
      </trkpt>
      <trkpt lat="43.34699" lon="-0.51258">
        <ele>132.318604</ele>
        <time>2014-09-03T07:59:50Z</time>
      </trkpt>
      <trkpt lat="43.34695" lon="-0.51234">
        <ele>131.3573</ele>
        <time>2014-09-03T07:59:54Z</time>
      </trkpt>
      <trkpt lat="43.34727" lon="-0.51131">
        <ele>132.318604</ele>
        <time>2014-09-03T08:00:09Z</time>
      </trkpt>
      <trkpt lat="43.34734" lon="-0.51102">
        <ele>132.318604</ele>
        <time>2014-09-03T08:00:13Z</time>
      </trkpt>
      <trkpt lat="43.34735" lon="-0.51087">
        <ele>131.837891</ele>
        <time>2014-09-03T08:00:15Z</time>
      </trkpt>
      <trkpt lat="43.34749" lon="-0.51038">
        <ele>132.318604</ele>
        <time>2014-09-03T08:00:22Z</time>
      </trkpt>
      <trkpt lat="43.34744" lon="-0.51002">
        <ele>132.318604</ele>
        <time>2014-09-03T08:00:27Z</time>
      </trkpt>
      <trkpt lat="43.3472" lon="-0.50956">
        <ele>132.799316</ele>
        <time>2014-09-03T08:00:34Z</time>
      </trkpt>
      <trkpt lat="43.34675" lon="-0.50871">
        <ele>132.799316</ele>
        <time>2014-09-03T08:00:48Z</time>
      </trkpt>
      <trkpt lat="43.34615" lon="-0.50791">
        <ele>133.760498</ele>
        <time>2014-09-03T08:01:03Z</time>
      </trkpt>
      <trkpt lat="43.34607" lon="-0.50763">
        <ele>133.279907</ele>
        <time>2014-09-03T08:01:07Z</time>
      </trkpt>
      <trkpt lat="43.34594" lon="-0.50738">
        <ele>133.760498</ele>
        <time>2014-09-03T08:01:11Z</time>
      </trkpt>
      <trkpt lat="43.34548" lon="-0.50684">
        <ele>134.241211</ele>
        <time>2014-09-03T08:01:22Z</time>
      </trkpt>
      <trkpt lat="43.34463" lon="-0.5058">
        <ele>134.241211</ele>
        <time>2014-09-03T08:01:42Z</time>
      </trkpt>
      <trkpt lat="43.34439" lon="-0.50558">
        <ele>133.760498</ele>
        <time>2014-09-03T08:01:47Z</time>
      </trkpt>
      <trkpt lat="43.34415" lon="-0.50521">
        <ele>134.241211</ele>
        <time>2014-09-03T08:01:53Z</time>
      </trkpt>
      <trkpt lat="43.34395" lon="-0.50505">
        <ele>134.241211</ele>
        <time>2014-09-03T08:01:57Z</time>
      </trkpt>
      <trkpt lat="43.34354" lon="-0.50489">
        <ele>134.721924</ele>
        <time>2014-09-03T08:02:05Z</time>
      </trkpt>
      <trkpt lat="43.34328" lon="-0.50473">
        <ele>134.721924</ele>
        <time>2014-09-03T08:02:10Z</time>
      </trkpt>
      <trkpt lat="43.34267" lon="-0.50391">
        <ele>135.202515</ele>
        <time>2014-09-03T08:02:25Z</time>
      </trkpt>
      <trkpt lat="43.342" lon="-0.5034">
        <ele>135.683105</ele>
        <time>2014-09-03T08:02:39Z</time>
      </trkpt>
      <trkpt lat="43.34164" lon="-0.50319">
        <ele>135.202515</ele>
        <time>2014-09-03T08:02:46Z</time>
      </trkpt>
      <trkpt lat="43.34145" lon="-0.50301">
        <ele>136.16394</ele>
        <time>2014-09-03T08:02:50Z</time>
      </trkpt>
      <trkpt lat="43.34118" lon="-0.50262">
        <ele>135.683105</ele>
        <time>2014-09-03T08:02:57Z</time>
      </trkpt>
      <trkpt lat="43.3406" lon="-0.50191">
        <ele>135.683105</ele>
        <time>2014-09-03T08:03:11Z</time>
      </trkpt>
      <trkpt lat="43.34011" lon="-0.50135">
        <ele>134.721924</ele>
        <time>2014-09-03T08:03:21Z</time>
      </trkpt>
      <trkpt lat="43.33979" lon="-0.50059">
        <ele>134.721924</ele>
        <time>2014-09-03T08:03:32Z</time>
      </trkpt>
      <trkpt lat="43.33956" lon="-0.49962">
        <ele>135.683105</ele>
        <time>2014-09-03T08:03:46Z</time>
      </trkpt>
      <trkpt lat="43.33927" lon="-0.49906">
        <ele>136.644653</ele>
        <time>2014-09-03T08:03:56Z</time>
      </trkpt>
      <trkpt lat="43.33906" lon="-0.49884">
        <ele>137.125244</ele>
        <time>2014-09-03T08:04:02Z</time>
      </trkpt>
      <trkpt lat="43.33882" lon="-0.49832">
        <ele>136.16394</ele>
        <time>2014-09-03T08:04:10Z</time>
      </trkpt>
      <trkpt lat="43.33866" lon="-0.4981">
        <ele>136.16394</ele>
        <time>2014-09-03T08:04:14Z</time>
      </trkpt>
      <trkpt lat="43.33872" lon="-0.49781">
        <ele>136.16394</ele>
        <time>2014-09-03T08:04:21Z</time>
      </trkpt>
      <trkpt lat="43.3387" lon="-0.4977">
        <ele>136.16394</ele>
        <time>2014-09-03T08:04:23Z</time>
      </trkpt>
      <trkpt lat="43.33837" lon="-0.49671">
        <ele>135.683105</ele>
        <time>2014-09-03T08:04:38Z</time>
      </trkpt>
      <trkpt lat="43.33831" lon="-0.49651">
        <ele>136.16394</ele>
        <time>2014-09-03T08:04:41Z</time>
      </trkpt>
      <trkpt lat="43.33825" lon="-0.49602">
        <ele>136.16394</ele>
        <time>2014-09-03T08:04:48Z</time>
      </trkpt>
      <trkpt lat="43.33822" lon="-0.49579">
        <ele>136.16394</ele>
        <time>2014-09-03T08:04:51Z</time>
      </trkpt>
      <trkpt lat="43.33812" lon="-0.49552">
        <ele>136.16394</ele>
        <time>2014-09-03T08:04:55Z</time>
      </trkpt>
      <trkpt lat="43.33799" lon="-0.49524">
        <ele>136.644653</ele>
        <time>2014-09-03T08:04:59Z</time>
      </trkpt>
      <trkpt lat="43.33773" lon="-0.49466">
        <ele>136.644653</ele>
        <time>2014-09-03T08:05:08Z</time>
      </trkpt>
      <trkpt lat="43.33733" lon="-0.49448">
        <ele>137.605835</ele>
        <time>2014-09-03T08:05:16Z</time>
      </trkpt>
      <trkpt lat="43.33725" lon="-0.49436">
        <ele>136.644653</ele>
        <time>2014-09-03T08:05:18Z</time>
      </trkpt>
      <trkpt lat="43.33716" lon="-0.49414">
        <ele>137.125244</ele>
        <time>2014-09-03T08:05:21Z</time>
      </trkpt>
      <trkpt lat="43.33704" lon="-0.4935">
        <ele>138.086548</ele>
        <time>2014-09-03T08:05:29Z</time>
      </trkpt>
      <trkpt lat="43.33686" lon="-0.49308">
        <ele>137.605835</ele>
        <time>2014-09-03T08:05:35Z</time>
      </trkpt>
      <trkpt lat="43.33677" lon="-0.49298">
        <ele>137.605835</ele>
        <time>2014-09-03T08:05:37Z</time>
      </trkpt>
      <trkpt lat="43.33649" lon="-0.49283">
        <ele>137.125244</ele>
        <time>2014-09-03T08:05:42Z</time>
      </trkpt>
      <trkpt lat="43.33609" lon="-0.49267">
        <ele>137.605835</ele>
        <time>2014-09-03T08:05:50Z</time>
      </trkpt>
      <trkpt lat="43.33607" lon="-0.49262">
        <ele>137.125244</ele>
        <time>2014-09-03T08:05:51Z</time>
      </trkpt>
      <trkpt lat="43.33601" lon="-0.49244">
        <ele>138.086548</ele>
        <time>2014-09-03T08:05:54Z</time>
      </trkpt>
      <trkpt lat="43.33592" lon="-0.49224">
        <ele>137.125244</ele>
        <time>2014-09-03T08:05:58Z</time>
      </trkpt>
      <trkpt lat="43.33566" lon="-0.49163">
        <ele>138.567261</ele>
        <time>2014-09-03T08:06:11Z</time>
      </trkpt>
      <trkpt lat="43.33558" lon="-0.49139">
        <ele>138.567261</ele>
        <time>2014-09-03T08:06:15Z</time>
      </trkpt>
      <trkpt lat="43.33555" lon="-0.49104">
        <ele>138.086548</ele>
        <time>2014-09-03T08:06:22Z</time>
      </trkpt>
      <trkpt lat="43.33504" lon="-0.49005">
        <ele>139.528442</ele>
        <time>2014-09-03T08:06:40Z</time>
      </trkpt>
      <trkpt lat="43.33463" lon="-0.48876">
        <ele>139.528442</ele>
        <time>2014-09-03T08:06:59Z</time>
      </trkpt>
      <trkpt lat="43.33451" lon="-0.48827">
        <ele>140.489868</ele>
        <time>2014-09-03T08:07:06Z</time>
      </trkpt>
      <trkpt lat="43.33429" lon="-0.48818">
        <ele>139.047852</ele>
        <time>2014-09-03T08:07:12Z</time>
      </trkpt>
      <trkpt lat="43.33384" lon="-0.48848">
        <ele>140.970459</ele>
        <time>2014-09-03T08:07:22Z</time>
      </trkpt>
      <trkpt lat="43.33353" lon="-0.48841">
        <ele>140.489868</ele>
        <time>2014-09-03T08:07:28Z</time>
      </trkpt>
      <trkpt lat="43.33316" lon="-0.48801">
        <ele>141.45105</ele>
        <time>2014-09-03T08:07:36Z</time>
      </trkpt>
      <trkpt lat="43.33303" lon="-0.48774">
        <ele>140.489868</ele>
        <time>2014-09-03T08:07:40Z</time>
      </trkpt>
      <trkpt lat="43.3328" lon="-0.48726">
        <ele>140.009155</ele>
        <time>2014-09-03T08:07:47Z</time>
      </trkpt>
      <trkpt lat="43.33212" lon="-0.48639">
        <ele>140.009155</ele>
        <time>2014-09-03T08:08:02Z</time>
      </trkpt>
      <trkpt lat="43.33188" lon="-0.48586">
        <ele>140.970459</ele>
        <time>2014-09-03T08:08:10Z</time>
      </trkpt>
      <trkpt lat="43.33185" lon="-0.48549">
        <ele>140.970459</ele>
        <time>2014-09-03T08:08:15Z</time>
      </trkpt>
      <trkpt lat="43.33193" lon="-0.48484">
        <ele>140.489868</ele>
        <time>2014-09-03T08:08:23Z</time>
      </trkpt>
      <trkpt lat="43.3318" lon="-0.48442">
        <ele>140.489868</ele>
        <time>2014-09-03T08:08:29Z</time>
      </trkpt>
      <trkpt lat="43.33163" lon="-0.48429">
        <ele>141.45105</ele>
        <time>2014-09-03T08:08:33Z</time>
      </trkpt>
      <trkpt lat="43.33138" lon="-0.48423">
        <ele>141.931763</ele>
        <time>2014-09-03T08:08:38Z</time>
      </trkpt>
      <trkpt lat="43.33127" lon="-0.4842">
        <ele>141.45105</ele>
        <time>2014-09-03T08:08:40Z</time>
      </trkpt>
      <trkpt lat="43.33109" lon="-0.48404">
        <ele>142.412476</ele>
        <time>2014-09-03T08:08:44Z</time>
      </trkpt>
      <trkpt lat="43.33091" lon="-0.48353">
        <ele>141.931763</ele>
        <time>2014-09-03T08:08:52Z</time>
      </trkpt>
      <trkpt lat="43.33082" lon="-0.48343">
        <ele>141.931763</ele>
        <time>2014-09-03T08:08:54Z</time>
      </trkpt>
      <trkpt lat="43.33047" lon="-0.48255">
        <ele>142.893066</ele>
        <time>2014-09-03T08:09:09Z</time>
      </trkpt>
      <trkpt lat="43.33057" lon="-0.48195">
        <ele>143.373657</ele>
        <time>2014-09-03T08:09:18Z</time>
      </trkpt>
      <trkpt lat="43.33055" lon="-0.48167">
        <ele>142.893066</ele>
        <time>2014-09-03T08:09:22Z</time>
      </trkpt>
      <trkpt lat="43.33041" lon="-0.48096">
        <ele>143.373657</ele>
        <time>2014-09-03T08:09:32Z</time>
      </trkpt>
      <trkpt lat="43.33003" lon="-0.48016">
        <ele>143.373657</ele>
        <time>2014-09-03T08:09:44Z</time>
      </trkpt>
      <trkpt lat="43.32991" lon="-0.47964">
        <ele>143.85437</ele>
        <time>2014-09-03T08:09:51Z</time>
      </trkpt>
      <trkpt lat="43.32976" lon="-0.47922">
        <ele>143.85437</ele>
        <time>2014-09-03T08:09:57Z</time>
      </trkpt>
      <trkpt lat="43.32926" lon="-0.47809">
        <ele>143.85437</ele>
        <time>2014-09-03T08:10:14Z</time>
      </trkpt>
      <trkpt lat="43.32888" lon="-0.47715">
        <ele>143.85437</ele>
        <time>2014-09-03T08:10:27Z</time>
      </trkpt>
      <trkpt lat="43.32848" lon="-0.47605">
        <ele>143.85437</ele>
        <time>2014-09-03T08:10:42Z</time>
      </trkpt>
      <trkpt lat="43.32833" lon="-0.47572">
        <ele>143.85437</ele>
        <time>2014-09-03T08:10:47Z</time>
      </trkpt>
      <trkpt lat="43.32838" lon="-0.47525">
        <ele>144.335205</ele>
        <time>2014-09-03T08:10:54Z</time>
      </trkpt>
      <trkpt lat="43.32842" lon="-0.47523">
        <ele>143.85437</ele>
        <time>2014-09-03T08:10:55Z</time>
      </trkpt>
      <trkpt lat="43.32851" lon="-0.47518">
        <ele>143.85437</ele>
        <time>2014-09-03T08:10:57Z</time>
      </trkpt>
      <trkpt lat="43.32858" lon="-0.47481">
        <ele>144.335205</ele>
        <time>2014-09-03T08:11:04Z</time>
      </trkpt>
      <trkpt lat="43.3283" lon="-0.4738">
        <ele>143.85437</ele>
        <time>2014-09-03T08:11:17Z</time>
      </trkpt>
      <trkpt lat="43.32813" lon="-0.4726">
        <ele>143.85437</ele>
        <time>2014-09-03T08:11:32Z</time>
      </trkpt>
      <trkpt lat="43.32814" lon="-0.47148">
        <ele>144.335205</ele>
        <time>2014-09-03T08:11:46Z</time>
      </trkpt>
      <trkpt lat="43.32806" lon="-0.47055">
        <ele>145.296387</ele>
        <time>2014-09-03T08:11:59Z</time>
      </trkpt>
      <trkpt lat="43.32806" lon="-0.47047">
        <ele>144.815796</ele>
        <time>2014-09-03T08:12:00Z</time>
      </trkpt>
      <trkpt lat="43.32845" lon="-0.46944">
        <ele>144.815796</ele>
        <time>2014-09-03T08:12:15Z</time>
      </trkpt>
      <trkpt lat="43.32885" lon="-0.46875">
        <ele>144.815796</ele>
        <time>2014-09-03T08:12:26Z</time>
      </trkpt>
      <trkpt lat="43.32898" lon="-0.4686">
        <ele>144.335205</ele>
        <time>2014-09-03T08:12:29Z</time>
      </trkpt>
      <trkpt lat="43.32934" lon="-0.46832">
        <ele>145.296387</ele>
        <time>2014-09-03T08:12:36Z</time>
      </trkpt>
      <trkpt lat="43.32947" lon="-0.46818">
        <ele>144.815796</ele>
        <time>2014-09-03T08:12:39Z</time>
      </trkpt>
      <trkpt lat="43.32987" lon="-0.46761">
        <ele>144.335205</ele>
        <time>2014-09-03T08:12:49Z</time>
      </trkpt>
      <trkpt lat="43.33008" lon="-0.46736">
        <ele>144.815796</ele>
        <time>2014-09-03T08:12:54Z</time>
      </trkpt>
      <trkpt lat="43.33041" lon="-0.46712">
        <ele>144.815796</ele>
        <time>2014-09-03T08:13:00Z</time>
      </trkpt>
      <trkpt lat="43.33058" lon="-0.46688">
        <ele>144.335205</ele>
        <time>2014-09-03T08:13:04Z</time>
      </trkpt>
      <trkpt lat="43.3307" lon="-0.46652">
        <ele>144.815796</ele>
        <time>2014-09-03T08:13:09Z</time>
      </trkpt>
      <trkpt lat="43.33086" lon="-0.46631">
        <ele>144.815796</ele>
        <time>2014-09-03T08:13:13Z</time>
      </trkpt>
      <trkpt lat="43.33104" lon="-0.46615">
        <ele>144.815796</ele>
        <time>2014-09-03T08:13:17Z</time>
      </trkpt>
      <trkpt lat="43.33112" lon="-0.46575">
        <ele>144.335205</ele>
        <time>2014-09-03T08:13:23Z</time>
      </trkpt>
      <trkpt lat="43.33087" lon="-0.46519">
        <ele>144.815796</ele>
        <time>2014-09-03T08:13:31Z</time>
      </trkpt>
      <trkpt lat="43.33037" lon="-0.46453">
        <ele>146.257813</ele>
        <time>2014-09-03T08:13:44Z</time>
      </trkpt>
      <trkpt lat="43.32995" lon="-0.46433">
        <ele>145.7771</ele>
        <time>2014-09-03T08:13:52Z</time>
      </trkpt>
      <trkpt lat="43.32977" lon="-0.46417">
        <ele>146.257813</ele>
        <time>2014-09-03T08:13:56Z</time>
      </trkpt>
      <trkpt lat="43.32911" lon="-0.4635">
        <ele>147.218994</ele>
        <time>2014-09-03T08:14:12Z</time>
      </trkpt>
      <trkpt lat="43.32827" lon="-0.46238">
        <ele>147.218994</ele>
        <time>2014-09-03T08:14:33Z</time>
      </trkpt>
      <trkpt lat="43.32767" lon="-0.46148">
        <ele>147.699707</ele>
        <time>2014-09-03T08:14:49Z</time>
      </trkpt>
      <trkpt lat="43.32718" lon="-0.46064">
        <ele>146.738403</ele>
        <time>2014-09-03T08:15:02Z</time>
      </trkpt>
      <trkpt lat="43.32648" lon="-0.4597">
        <ele>147.218994</ele>
        <time>2014-09-03T08:15:20Z</time>
      </trkpt>
      <trkpt lat="43.32562" lon="-0.45887">
        <ele>148.18042</ele>
        <time>2014-09-03T08:15:38Z</time>
      </trkpt>
      <trkpt lat="43.3253" lon="-0.45852">
        <ele>147.699707</ele>
        <time>2014-09-03T08:15:45Z</time>
      </trkpt>
      <trkpt lat="43.32457" lon="-0.45768">
        <ele>147.699707</ele>
        <time>2014-09-03T08:16:01Z</time>
      </trkpt>
      <trkpt lat="43.32445" lon="-0.45754">
        <ele>148.18042</ele>
        <time>2014-09-03T08:16:04Z</time>
      </trkpt>
      <trkpt lat="43.32417" lon="-0.45731">
        <ele>148.18042</ele>
        <time>2014-09-03T08:16:10Z</time>
      </trkpt>
      <trkpt lat="43.32348" lon="-0.45689">
        <ele>149.141602</ele>
        <time>2014-09-03T08:16:23Z</time>
      </trkpt>
      <trkpt lat="43.32251" lon="-0.45619">
        <ele>150.583618</ele>
        <time>2014-09-03T08:16:42Z</time>
      </trkpt>
      <trkpt lat="43.32152" lon="-0.45553">
        <ele>150.583618</ele>
        <time>2014-09-03T08:17:01Z</time>
      </trkpt>
      <trkpt lat="43.32048" lon="-0.45504">
        <ele>150.583618</ele>
        <time>2014-09-03T08:17:20Z</time>
      </trkpt>
      <trkpt lat="43.32017" lon="-0.45486">
        <ele>150.103027</ele>
        <time>2014-09-03T08:17:26Z</time>
      </trkpt>
      <trkpt lat="43.31939" lon="-0.45445">
        <ele>150.583618</ele>
        <time>2014-09-03T08:17:40Z</time>
      </trkpt>
      <trkpt lat="43.31904" lon="-0.45416">
        <ele>150.583618</ele>
        <time>2014-09-03T08:17:47Z</time>
      </trkpt>
      <trkpt lat="43.31879" lon="-0.45378">
        <ele>149.141602</ele>
        <time>2014-09-03T08:17:53Z</time>
      </trkpt>
      <trkpt lat="43.31857" lon="-0.45348">
        <ele>149.622314</ele>
        <time>2014-09-03T08:17:58Z</time>
      </trkpt>
      <trkpt lat="43.31831" lon="-0.45334">
        <ele>150.103027</ele>
        <time>2014-09-03T08:18:03Z</time>
      </trkpt>
      <trkpt lat="43.31808" lon="-0.45299">
        <ele>149.622314</ele>
        <time>2014-09-03T08:18:09Z</time>
      </trkpt>
      <trkpt lat="43.31802" lon="-0.4527">
        <ele>149.622314</ele>
        <time>2014-09-03T08:18:13Z</time>
      </trkpt>
      <trkpt lat="43.31782" lon="-0.4522">
        <ele>150.103027</ele>
        <time>2014-09-03T08:18:21Z</time>
      </trkpt>
      <trkpt lat="43.31771" lon="-0.45214">
        <ele>150.583618</ele>
        <time>2014-09-03T08:18:23Z</time>
      </trkpt>
      <trkpt lat="43.31662" lon="-0.4518">
        <ele>151.064209</ele>
        <time>2014-09-03T08:18:42Z</time>
      </trkpt>
      <trkpt lat="43.31613" lon="-0.45193">
        <ele>151.544922</ele>
        <time>2014-09-03T08:18:51Z</time>
      </trkpt>
      <trkpt lat="43.31586" lon="-0.45193">
        <ele>151.544922</ele>
        <time>2014-09-03T08:18:56Z</time>
      </trkpt>
      <trkpt lat="43.31567" lon="-0.45196">
        <ele>151.064209</ele>
        <time>2014-09-03T08:18:59Z</time>
      </trkpt>
      <trkpt lat="43.3153" lon="-0.45181">
        <ele>151.544922</ele>
        <time>2014-09-03T08:19:06Z</time>
      </trkpt>
      <trkpt lat="43.31497" lon="-0.45164">
        <ele>151.544922</ele>
        <time>2014-09-03T08:19:12Z</time>
      </trkpt>
      <trkpt lat="43.3148" lon="-0.45163">
        <ele>152.025757</ele>
        <time>2014-09-03T08:19:15Z</time>
      </trkpt>
      <trkpt lat="43.31436" lon="-0.45141">
        <ele>151.544922</ele>
        <time>2014-09-03T08:19:23Z</time>
      </trkpt>
      <trkpt lat="43.31369" lon="-0.4512">
        <ele>150.583618</ele>
        <time>2014-09-03T08:19:34Z</time>
      </trkpt>
      <trkpt lat="43.31301" lon="-0.45085">
        <ele>150.103027</ele>
        <time>2014-09-03T08:19:46Z</time>
      </trkpt>
      <trkpt lat="43.3129" lon="-0.45077">
        <ele>150.583618</ele>
        <time>2014-09-03T08:19:48Z</time>
      </trkpt>
      <trkpt lat="43.31221" lon="-0.45035">
        <ele>150.583618</ele>
        <time>2014-09-03T08:20:01Z</time>
      </trkpt>
      <trkpt lat="43.31155" lon="-0.44979">
        <ele>150.583618</ele>
        <time>2014-09-03T08:20:14Z</time>
      </trkpt>
      <trkpt lat="43.31045" lon="-0.44897">
        <ele>150.583618</ele>
        <time>2014-09-03T08:20:35Z</time>
      </trkpt>
      <trkpt lat="43.31005" lon="-0.44864">
        <ele>150.583618</ele>
        <time>2014-09-03T08:20:43Z</time>
      </trkpt>
      <trkpt lat="43.30957" lon="-0.44792">
        <ele>151.064209</ele>
        <time>2014-09-03T08:20:55Z</time>
      </trkpt>
      <trkpt lat="43.30951" lon="-0.44778">
        <ele>150.103027</ele>
        <time>2014-09-03T08:20:57Z</time>
      </trkpt>
      <trkpt lat="43.30932" lon="-0.44754">
        <ele>151.064209</ele>
        <time>2014-09-03T08:21:02Z</time>
      </trkpt>
      <trkpt lat="43.30917" lon="-0.44745">
        <ele>151.544922</ele>
        <time>2014-09-03T08:21:05Z</time>
      </trkpt>
      <trkpt lat="43.30864" lon="-0.44667">
        <ele>152.025757</ele>
        <time>2014-09-03T08:21:19Z</time>
      </trkpt>
      <trkpt lat="43.30847" lon="-0.44646">
        <ele>153.467651</ele>
        <time>2014-09-03T08:21:23Z</time>
      </trkpt>
      <trkpt lat="43.30825" lon="-0.44617">
        <ele>154.909546</ele>
        <time>2014-09-03T08:21:29Z</time>
      </trkpt>
      <trkpt lat="43.3082" lon="-0.44595">
        <ele>153.948364</ele>
        <time>2014-09-03T08:21:32Z</time>
      </trkpt>
      <trkpt lat="43.30797" lon="-0.44547">
        <ele>152.506348</ele>
        <time>2014-09-03T08:21:38Z</time>
      </trkpt>
      <trkpt lat="43.30779" lon="-0.44483">
        <ele>152.025757</ele>
        <time>2014-09-03T08:21:46Z</time>
      </trkpt>
      <trkpt lat="43.30759" lon="-0.44374">
        <ele>152.986938</ele>
        <time>2014-09-03T08:22:00Z</time>
      </trkpt>
      <trkpt lat="43.30741" lon="-0.44305">
        <ele>152.986938</ele>
        <time>2014-09-03T08:22:09Z</time>
      </trkpt>
      <trkpt lat="43.30731" lon="-0.44269">
        <ele>153.948364</ele>
        <time>2014-09-03T08:22:14Z</time>
      </trkpt>
      <trkpt lat="43.30679" lon="-0.4416">
        <ele>153.948364</ele>
        <time>2014-09-03T08:22:30Z</time>
      </trkpt>
      <trkpt lat="43.30617" lon="-0.44054">
        <ele>154.428955</ele>
        <time>2014-09-03T08:22:47Z</time>
      </trkpt>
      <trkpt lat="43.30576" lon="-0.4399">
        <ele>154.909546</ele>
        <time>2014-09-03T08:22:58Z</time>
      </trkpt>
      <trkpt lat="43.30568" lon="-0.4398">
        <ele>154.909546</ele>
        <time>2014-09-03T08:23:00Z</time>
      </trkpt>
      <trkpt lat="43.30512" lon="-0.4388">
        <ele>155.870972</ele>
        <time>2014-09-03T08:23:17Z</time>
      </trkpt>
      <trkpt lat="43.30485" lon="-0.43824">
        <ele>155.870972</ele>
        <time>2014-09-03T08:23:26Z</time>
      </trkpt>
      <trkpt lat="43.30481" lon="-0.43803">
        <ele>156.351563</ele>
        <time>2014-09-03T08:23:29Z</time>
      </trkpt>
      <trkpt lat="43.30479" lon="-0.43789">
        <ele>156.351563</ele>
        <time>2014-09-03T08:23:31Z</time>
      </trkpt>
      <trkpt lat="43.30465" lon="-0.43752">
        <ele>156.832153</ele>
        <time>2014-09-03T08:23:37Z</time>
      </trkpt>
      <trkpt lat="43.3043" lon="-0.43667">
        <ele>157.312866</ele>
        <time>2014-09-03T08:23:50Z</time>
      </trkpt>
      <trkpt lat="43.30408" lon="-0.43606">
        <ele>157.793579</ele>
        <time>2014-09-03T08:23:59Z</time>
      </trkpt>
      <trkpt lat="43.30399" lon="-0.43588">
        <ele>156.832153</ele>
        <time>2014-09-03T08:24:02Z</time>
      </trkpt>
      <trkpt lat="43.30384" lon="-0.43567">
        <ele>158.27417</ele>
        <time>2014-09-03T08:24:07Z</time>
      </trkpt>
      <trkpt lat="43.30367" lon="-0.43531">
        <ele>156.832153</ele>
        <time>2014-09-03T08:24:13Z</time>
      </trkpt>
      <trkpt lat="43.30377" lon="-0.43472">
        <ele>155.390259</ele>
        <time>2014-09-03T08:24:20Z</time>
      </trkpt>
      <trkpt lat="43.30371" lon="-0.43444">
        <ele>155.870972</ele>
        <time>2014-09-03T08:24:24Z</time>
      </trkpt>
      <trkpt lat="43.30328" lon="-0.43351">
        <ele>156.351563</ele>
        <time>2014-09-03T08:24:38Z</time>
      </trkpt>
      <trkpt lat="43.30279" lon="-0.43256">
        <ele>156.832153</ele>
        <time>2014-09-03T08:24:53Z</time>
      </trkpt>
      <trkpt lat="43.30273" lon="-0.43242">
        <ele>156.832153</ele>
        <time>2014-09-03T08:24:55Z</time>
      </trkpt>
      <trkpt lat="43.30253" lon="-0.43144">
        <ele>157.793579</ele>
        <time>2014-09-03T08:25:08Z</time>
      </trkpt>
      <trkpt lat="43.30251" lon="-0.43138">
        <ele>157.312866</ele>
        <time>2014-09-03T08:25:09Z</time>
      </trkpt>
      <trkpt lat="43.30241" lon="-0.43107">
        <ele>156.351563</ele>
        <time>2014-09-03T08:25:13Z</time>
      </trkpt>
      <trkpt lat="43.3023" lon="-0.43055">
        <ele>157.312866</ele>
        <time>2014-09-03T08:25:20Z</time>
      </trkpt>
      <trkpt lat="43.30219" lon="-0.42999">
        <ele>157.312866</ele>
        <time>2014-09-03T08:25:27Z</time>
      </trkpt>
      <trkpt lat="43.30191" lon="-0.42915">
        <ele>158.27417</ele>
        <time>2014-09-03T08:25:39Z</time>
      </trkpt>
      <trkpt lat="43.30184" lon="-0.42895">
        <ele>158.754761</ele>
        <time>2014-09-03T08:25:42Z</time>
      </trkpt>
      <trkpt lat="43.30168" lon="-0.4282">
        <ele>157.793579</ele>
        <time>2014-09-03T08:25:51Z</time>
      </trkpt>
      <trkpt lat="43.3014" lon="-0.42712">
        <ele>159.716187</ele>
        <time>2014-09-03T08:26:05Z</time>
      </trkpt>
      <trkpt lat="43.3011" lon="-0.42606">
        <ele>159.716187</ele>
        <time>2014-09-03T08:26:19Z</time>
      </trkpt>
      <trkpt lat="43.3007" lon="-0.42507">
        <ele>159.716187</ele>
        <time>2014-09-03T08:26:33Z</time>
      </trkpt>
      <trkpt lat="43.30037" lon="-0.42415">
        <ele>159.235474</ele>
        <time>2014-09-03T08:26:46Z</time>
      </trkpt>
      <trkpt lat="43.30019" lon="-0.42362">
        <ele>159.716187</ele>
        <time>2014-09-03T08:26:53Z</time>
      </trkpt>
      <trkpt lat="43.30011" lon="-0.42324">
        <ele>158.754761</ele>
        <time>2014-09-03T08:26:57Z</time>
      </trkpt>
      <trkpt lat="43.30002" lon="-0.42298">
        <ele>159.716187</ele>
        <time>2014-09-03T08:27:00Z</time>
      </trkpt>
      <trkpt lat="43.29991" lon="-0.42249">
        <ele>159.716187</ele>
        <time>2014-09-03T08:27:06Z</time>
      </trkpt>
      <trkpt lat="43.29992" lon="-0.42187">
        <ele>159.235474</ele>
        <time>2014-09-03T08:27:13Z</time>
      </trkpt>
      <trkpt lat="43.29985" lon="-0.42154">
        <ele>159.716187</ele>
        <time>2014-09-03T08:27:17Z</time>
      </trkpt>
      <trkpt lat="43.29961" lon="-0.42097">
        <ele>159.716187</ele>
        <time>2014-09-03T08:27:25Z</time>
      </trkpt>
      <trkpt lat="43.29947" lon="-0.42048">
        <ele>159.716187</ele>
        <time>2014-09-03T08:27:31Z</time>
      </trkpt>
      <trkpt lat="43.29918" lon="-0.4199">
        <ele>161.158203</ele>
        <time>2014-09-03T08:27:39Z</time>
      </trkpt>
      <trkpt lat="43.29875" lon="-0.41928">
        <ele>161.638916</ele>
        <time>2014-09-03T08:27:49Z</time>
      </trkpt>
      <trkpt lat="43.2987" lon="-0.41921">
        <ele>162.119507</ele>
        <time>2014-09-03T08:27:50Z</time>
      </trkpt>
      <trkpt lat="43.29856" lon="-0.41889">
        <ele>162.600098</ele>
        <time>2014-09-03T08:27:54Z</time>
      </trkpt>
      <trkpt lat="43.29844" lon="-0.41842">
        <ele>162.600098</ele>
        <time>2014-09-03T08:28:00Z</time>
      </trkpt>
      <trkpt lat="43.29814" lon="-0.4179">
        <ele>162.119507</ele>
        <time>2014-09-03T08:28:08Z</time>
      </trkpt>
      <trkpt lat="43.29813" lon="-0.41769">
        <ele>162.600098</ele>
        <time>2014-09-03T08:28:10Z</time>
      </trkpt>
      <trkpt lat="43.29799" lon="-0.41712">
        <ele>163.080811</ele>
        <time>2014-09-03T08:28:17Z</time>
      </trkpt>
      <trkpt lat="43.29794" lon="-0.41677">
        <ele>162.600098</ele>
        <time>2014-09-03T08:28:21Z</time>
      </trkpt>
      <trkpt lat="43.29792" lon="-0.41641">
        <ele>162.600098</ele>
        <time>2014-09-03T08:28:25Z</time>
      </trkpt>
      <trkpt lat="43.29787" lon="-0.41616">
        <ele>163.080811</ele>
        <time>2014-09-03T08:28:28Z</time>
      </trkpt>
      <trkpt lat="43.29774" lon="-0.41584">
        <ele>163.080811</ele>
        <time>2014-09-03T08:28:32Z</time>
      </trkpt>
      <trkpt lat="43.29769" lon="-0.41556">
        <ele>162.600098</ele>
        <time>2014-09-03T08:28:35Z</time>
      </trkpt>
      <trkpt lat="43.29752" lon="-0.41517">
        <ele>162.119507</ele>
        <time>2014-09-03T08:28:40Z</time>
      </trkpt>
      <trkpt lat="43.29716" lon="-0.41469">
        <ele>162.119507</ele>
        <time>2014-09-03T08:28:48Z</time>
      </trkpt>
      <trkpt lat="43.29697" lon="-0.41405">
        <ele>162.119507</ele>
        <time>2014-09-03T08:28:56Z</time>
      </trkpt>
      <trkpt lat="43.29664" lon="-0.41371">
        <ele>162.119507</ele>
        <time>2014-09-03T08:29:04Z</time>
      </trkpt>
      <trkpt lat="43.2965" lon="-0.41381">
        <ele>162.600098</ele>
        <time>2014-09-03T08:29:08Z</time>
      </trkpt>
      <trkpt lat="43.29633" lon="-0.41418">
        <ele>166.445313</ele>
        <time>2014-09-03T08:29:19Z</time>
      </trkpt>
      <trkpt lat="43.2965" lon="-0.41402">
        <ele>167.406738</ele>
        <time>2014-09-03T08:29:29Z</time>
      </trkpt>
      <trkpt lat="43.29711" lon="-0.41315">
        <ele>166.445313</ele>
        <time>2014-09-03T08:29:48Z</time>
      </trkpt>
      <trkpt lat="43.29748" lon="-0.41261">
        <ele>165.484131</ele>
        <time>2014-09-03T08:29:59Z</time>
      </trkpt>
      <trkpt lat="43.29736" lon="-0.41241">
        <ele>165.003418</ele>
        <time>2014-09-03T08:30:05Z</time>
      </trkpt>
      <trkpt lat="43.29725" lon="-0.41238">
        <ele>164.522705</ele>
        <time>2014-09-03T08:30:07Z</time>
      </trkpt>
      <trkpt lat="43.29702" lon="-0.4121">
        <ele>164.042114</ele>
        <time>2014-09-03T08:30:13Z</time>
      </trkpt>
      <trkpt lat="43.29701" lon="-0.41196">
        <ele>164.522705</ele>
        <time>2014-09-03T08:30:15Z</time>
      </trkpt>
      <trkpt lat="43.29693" lon="-0.41158">
        <ele>164.522705</ele>
        <time>2014-09-03T08:30:21Z</time>
      </trkpt>
      <trkpt lat="43.29652" lon="-0.41099">
        <ele>164.522705</ele>
        <time>2014-09-03T08:30:32Z</time>
      </trkpt>
      <trkpt lat="43.2963" lon="-0.41066">
        <ele>164.042114</ele>
        <time>2014-09-03T08:30:38Z</time>
      </trkpt>
      <trkpt lat="43.29589" lon="-0.41014">
        <ele>164.042114</ele>
        <time>2014-09-03T08:30:47Z</time>
      </trkpt>
      <trkpt lat="43.29571" lon="-0.40992">
        <ele>164.042114</ele>
        <time>2014-09-03T08:30:51Z</time>
      </trkpt>
      <trkpt lat="43.29495" lon="-0.40893">
        <ele>163.561523</ele>
        <time>2014-09-03T08:31:08Z</time>
      </trkpt>
      <trkpt lat="43.29436" lon="-0.40785">
        <ele>164.042114</ele>
        <time>2014-09-03T08:31:25Z</time>
      </trkpt>
      <trkpt lat="43.29414" lon="-0.4074">
        <ele>164.522705</ele>
        <time>2014-09-03T08:31:32Z</time>
      </trkpt>
      <trkpt lat="43.29408" lon="-0.407">
        <ele>164.042114</ele>
        <time>2014-09-03T08:31:38Z</time>
      </trkpt>
      <trkpt lat="43.29422" lon="-0.40583">
        <ele>164.522705</ele>
        <time>2014-09-03T08:31:54Z</time>
      </trkpt>
      <trkpt lat="43.29426" lon="-0.40492">
        <ele>165.003418</ele>
        <time>2014-09-03T08:32:06Z</time>
      </trkpt>
      <trkpt lat="43.2943" lon="-0.40463">
        <ele>165.003418</ele>
        <time>2014-09-03T08:32:10Z</time>
      </trkpt>
      <trkpt lat="43.29442" lon="-0.40431">
        <ele>165.484131</ele>
        <time>2014-09-03T08:32:16Z</time>
      </trkpt>
      <trkpt lat="43.29448" lon="-0.40399">
        <ele>165.964722</ele>
        <time>2014-09-03T08:32:21Z</time>
      </trkpt>
      <trkpt lat="43.29461" lon="-0.40296">
        <ele>166.445313</ele>
        <time>2014-09-03T08:32:37Z</time>
      </trkpt>
      <trkpt lat="43.29463" lon="-0.4029">
        <ele>166.445313</ele>
        <time>2014-09-03T08:32:38Z</time>
      </trkpt>
      <trkpt lat="43.29474" lon="-0.40266">
        <ele>166.445313</ele>
        <time>2014-09-03T08:32:43Z</time>
      </trkpt>
      <trkpt lat="43.29481" lon="-0.40258">
        <ele>166.445313</ele>
        <time>2014-09-03T08:32:45Z</time>
      </trkpt>
      <trkpt lat="43.29486" lon="-0.40232">
        <ele>166.926025</ele>
        <time>2014-09-03T08:32:50Z</time>
      </trkpt>
      <trkpt lat="43.29477" lon="-0.40187">
        <ele>166.926025</ele>
        <time>2014-09-03T08:32:57Z</time>
      </trkpt>
      <trkpt lat="43.29465" lon="-0.40088">
        <ele>166.445313</ele>
        <time>2014-09-03T08:33:11Z</time>
      </trkpt>
      <trkpt lat="43.29478" lon="-0.40036">
        <ele>166.445313</ele>
        <time>2014-09-03T08:33:17Z</time>
      </trkpt>
      <trkpt lat="43.29491" lon="-0.39972">
        <ele>165.964722</ele>
        <time>2014-09-03T08:33:25Z</time>
      </trkpt>
      <trkpt lat="43.29493" lon="-0.39941">
        <ele>165.964722</ele>
        <time>2014-09-03T08:33:29Z</time>
      </trkpt>
      <trkpt lat="43.29507" lon="-0.39884">
        <ele>167.887329</ele>
        <time>2014-09-03T08:33:39Z</time>
      </trkpt>
      <trkpt lat="43.29507" lon="-0.39866">
        <ele>168.368042</ele>
        <time>2014-09-03T08:33:42Z</time>
      </trkpt>
      <trkpt lat="43.29502" lon="-0.39821">
        <ele>168.368042</ele>
        <time>2014-09-03T08:33:50Z</time>
      </trkpt>
      <trkpt lat="43.29487" lon="-0.39805">
        <ele>165.484131</ele>
        <time>2014-09-03T08:33:54Z</time>
      </trkpt>
      <trkpt lat="43.2946" lon="-0.39781">
        <ele>165.484131</ele>
        <time>2014-09-03T08:34:00Z</time>
      </trkpt>
      <trkpt lat="43.29425" lon="-0.39702">
        <ele>166.445313</ele>
        <time>2014-09-03T08:34:12Z</time>
      </trkpt>
      <trkpt lat="43.29381" lon="-0.39604">
        <ele>165.964722</ele>
        <time>2014-09-03T08:34:27Z</time>
      </trkpt>
      <trkpt lat="43.29369" lon="-0.3958">
        <ele>166.445313</ele>
        <time>2014-09-03T08:34:31Z</time>
      </trkpt>
      <trkpt lat="43.29358" lon="-0.39563">
        <ele>166.445313</ele>
        <time>2014-09-03T08:34:34Z</time>
      </trkpt>
      <trkpt lat="43.29344" lon="-0.39537">
        <ele>166.445313</ele>
        <time>2014-09-03T08:34:38Z</time>
      </trkpt>
      <trkpt lat="43.2934" lon="-0.39523">
        <ele>166.445313</ele>
        <time>2014-09-03T08:34:40Z</time>
      </trkpt>
      <trkpt lat="43.29323" lon="-0.39495">
        <ele>166.926025</ele>
        <time>2014-09-03T08:34:45Z</time>
      </trkpt>
      <trkpt lat="43.29298" lon="-0.39411">
        <ele>166.926025</ele>
        <time>2014-09-03T08:34:57Z</time>
      </trkpt>
      <trkpt lat="43.29288" lon="-0.39352">
        <ele>167.406738</ele>
        <time>2014-09-03T08:35:05Z</time>
      </trkpt>
      <trkpt lat="43.29279" lon="-0.39249">
        <ele>167.887329</ele>
        <time>2014-09-03T08:35:18Z</time>
      </trkpt>
      <trkpt lat="43.29278" lon="-0.39234">
        <ele>168.368042</ele>
        <time>2014-09-03T08:35:20Z</time>
      </trkpt>
      <trkpt lat="43.29286" lon="-0.39174">
        <ele>168.368042</ele>
        <time>2014-09-03T08:35:28Z</time>
      </trkpt>
      <trkpt lat="43.2929" lon="-0.39159">
        <ele>168.368042</ele>
        <time>2014-09-03T08:35:30Z</time>
      </trkpt>
      <trkpt lat="43.29317" lon="-0.39057">
        <ele>168.848755</ele>
        <time>2014-09-03T08:35:44Z</time>
      </trkpt>
      <trkpt lat="43.29325" lon="-0.39037">
        <ele>168.368042</ele>
        <time>2014-09-03T08:35:47Z</time>
      </trkpt>
      <trkpt lat="43.2934" lon="-0.39004">
        <ele>168.368042</ele>
        <time>2014-09-03T08:35:52Z</time>
      </trkpt>
      <trkpt lat="43.29361" lon="-0.38959">
        <ele>169.329468</ele>
        <time>2014-09-03T08:35:59Z</time>
      </trkpt>
      <trkpt lat="43.2938" lon="-0.38935">
        <ele>169.329468</ele>
        <time>2014-09-03T08:36:04Z</time>
      </trkpt>
      <trkpt lat="43.29399" lon="-0.38916">
        <ele>169.810059</ele>
        <time>2014-09-03T08:36:09Z</time>
      </trkpt>
      <trkpt lat="43.29412" lon="-0.38908">
        <ele>170.290649</ele>
        <time>2014-09-03T08:36:12Z</time>
      </trkpt>
      <trkpt lat="43.29425" lon="-0.38898">
        <ele>169.810059</ele>
        <time>2014-09-03T08:36:15Z</time>
      </trkpt>
      <trkpt lat="43.29473" lon="-0.38811">
        <ele>170.771362</ele>
        <time>2014-09-03T08:36:30Z</time>
      </trkpt>
      <trkpt lat="43.2948" lon="-0.38793">
        <ele>170.290649</ele>
        <time>2014-09-03T08:36:33Z</time>
      </trkpt>
      <trkpt lat="43.29507" lon="-0.38733">
        <ele>171.252075</ele>
        <time>2014-09-03T08:36:47Z</time>
      </trkpt>
      <trkpt lat="43.29505" lon="-0.38715">
        <ele>171.252075</ele>
        <time>2014-09-03T08:36:54Z</time>
      </trkpt>
      <trkpt lat="43.29514" lon="-0.3873">
        <ele>170.771362</ele>
        <time>2014-09-03T08:37:05Z</time>
      </trkpt>
      <trkpt lat="43.29516" lon="-0.38733">
        <ele>171.252075</ele>
        <time>2014-09-03T08:37:19Z</time>
      </trkpt>
      <trkpt lat="43.29511" lon="-0.3875">
        <ele>170.771362</ele>
        <time>2014-09-03T08:37:24Z</time>
      </trkpt>
      <trkpt lat="43.29487" lon="-0.38795">
        <ele>170.771362</ele>
        <time>2014-09-03T08:37:34Z</time>
      </trkpt>
      <trkpt lat="43.29465" lon="-0.3885">
        <ele>170.290649</ele>
        <time>2014-09-03T08:37:43Z</time>
      </trkpt>
      <trkpt lat="43.29431" lon="-0.38902">
        <ele>170.290649</ele>
        <time>2014-09-03T08:37:52Z</time>
      </trkpt>
      <trkpt lat="43.29411" lon="-0.38918">
        <ele>169.810059</ele>
        <time>2014-09-03T08:37:56Z</time>
      </trkpt>
      <trkpt lat="43.29362" lon="-0.38969">
        <ele>169.810059</ele>
        <time>2014-09-03T08:38:06Z</time>
      </trkpt>
      <trkpt lat="43.29342" lon="-0.39006">
        <ele>168.368042</ele>
        <time>2014-09-03T08:38:12Z</time>
      </trkpt>
      <trkpt lat="43.29306" lon="-0.39111">
        <ele>168.848755</ele>
        <time>2014-09-03T08:38:27Z</time>
      </trkpt>
      <trkpt lat="43.29279" lon="-0.3921">
        <ele>168.848755</ele>
        <time>2014-09-03T08:38:41Z</time>
      </trkpt>
      <trkpt lat="43.29278" lon="-0.39225">
        <ele>168.848755</ele>
        <time>2014-09-03T08:38:43Z</time>
      </trkpt>
      <trkpt lat="43.29289" lon="-0.39348">
        <ele>168.848755</ele>
        <time>2014-09-03T08:38:59Z</time>
      </trkpt>
      <trkpt lat="43.2932" lon="-0.39491">
        <ele>167.887329</ele>
        <time>2014-09-03T08:39:18Z</time>
      </trkpt>
      <trkpt lat="43.29334" lon="-0.39512">
        <ele>167.887329</ele>
        <time>2014-09-03T08:39:22Z</time>
      </trkpt>
      <trkpt lat="43.29345" lon="-0.39537">
        <ele>167.887329</ele>
        <time>2014-09-03T08:39:26Z</time>
      </trkpt>
      <trkpt lat="43.29363" lon="-0.39571">
        <ele>167.406738</ele>
        <time>2014-09-03T08:39:31Z</time>
      </trkpt>
      <trkpt lat="43.29383" lon="-0.39606">
        <ele>167.406738</ele>
        <time>2014-09-03T08:39:37Z</time>
      </trkpt>
      <trkpt lat="43.29415" lon="-0.39681">
        <ele>166.926025</ele>
        <time>2014-09-03T08:39:48Z</time>
      </trkpt>
      <trkpt lat="43.29442" lon="-0.39733">
        <ele>166.445313</ele>
        <time>2014-09-03T08:39:56Z</time>
      </trkpt>
      <trkpt lat="43.29458" lon="-0.39772">
        <ele>166.445313</ele>
        <time>2014-09-03T08:40:02Z</time>
      </trkpt>
      <trkpt lat="43.29472" lon="-0.39797">
        <ele>166.926025</ele>
        <time>2014-09-03T08:40:06Z</time>
      </trkpt>
      <trkpt lat="43.29501" lon="-0.39818">
        <ele>167.887329</ele>
        <time>2014-09-03T08:40:12Z</time>
      </trkpt>
      <trkpt lat="43.29506" lon="-0.39827">
        <ele>168.368042</ele>
        <time>2014-09-03T08:40:14Z</time>
      </trkpt>
      <trkpt lat="43.29511" lon="-0.39848">
        <ele>168.848755</ele>
        <time>2014-09-03T08:40:18Z</time>
      </trkpt>
      <trkpt lat="43.29512" lon="-0.39895">
        <ele>168.848755</ele>
        <time>2014-09-03T08:40:25Z</time>
      </trkpt>
      <trkpt lat="43.29516" lon="-0.39928">
        <ele>168.848755</ele>
        <time>2014-09-03T08:40:31Z</time>
      </trkpt>
      <trkpt lat="43.29515" lon="-0.39965">
        <ele>168.848755</ele>
        <time>2014-09-03T08:40:38Z</time>
      </trkpt>
      <trkpt lat="43.29509" lon="-0.39992">
        <ele>168.848755</ele>
        <time>2014-09-03T08:40:42Z</time>
      </trkpt>
      <trkpt lat="43.29494" lon="-0.40065">
        <ele>168.848755</ele>
        <time>2014-09-03T08:40:52Z</time>
      </trkpt>
      <trkpt lat="43.2949" lon="-0.40079">
        <ele>168.368042</ele>
        <time>2014-09-03T08:40:54Z</time>
      </trkpt>
      <trkpt lat="43.29486" lon="-0.40092">
        <ele>168.368042</ele>
        <time>2014-09-03T08:40:56Z</time>
      </trkpt>
      <trkpt lat="43.29481" lon="-0.40105">
        <ele>168.848755</ele>
        <time>2014-09-03T08:40:58Z</time>
      </trkpt>
      <trkpt lat="43.29471" lon="-0.40163">
        <ele>168.368042</ele>
        <time>2014-09-03T08:41:07Z</time>
      </trkpt>
      <trkpt lat="43.29463" lon="-0.40199">
        <ele>168.848755</ele>
        <time>2014-09-03T08:41:13Z</time>
      </trkpt>
      <trkpt lat="43.29455" lon="-0.402">
        <ele>168.368042</ele>
        <time>2014-09-03T08:41:23Z</time>
      </trkpt>
      <trkpt lat="43.29416" lon="-0.4018">
        <ele>169.810059</ele>
        <time>2014-09-03T08:41:35Z</time>
      </trkpt>
      <trkpt lat="43.29393" lon="-0.40168">
        <ele>168.368042</ele>
        <time>2014-09-03T08:41:45Z</time>
      </trkpt>
      <trkpt lat="43.29369" lon="-0.4017">
        <ele>168.368042</ele>
        <time>2014-09-03T08:41:54Z</time>
      </trkpt>
      <trkpt lat="43.29363" lon="-0.40175">
        <ele>168.368042</ele>
        <time>2014-09-03T08:41:56Z</time>
      </trkpt>
      <trkpt lat="43.2931" lon="-0.40153">
        <ele>168.368042</ele>
        <time>2014-09-03T08:42:08Z</time>
      </trkpt>
      <trkpt lat="43.29285" lon="-0.40145">
        <ele>167.406738</ele>
        <time>2014-09-03T08:42:13Z</time>
      </trkpt>
      <trkpt lat="43.29271" lon="-0.4014">
        <ele>167.887329</ele>
        <time>2014-09-03T08:42:16Z</time>
      </trkpt>
      <trkpt lat="43.29261" lon="-0.40138">
        <ele>167.406738</ele>
        <time>2014-09-03T08:42:18Z</time>
      </trkpt>
      <trkpt lat="43.29234" lon="-0.40144">
        <ele>167.887329</ele>
        <time>2014-09-03T08:42:26Z</time>
      </trkpt>
      <trkpt lat="43.29244" lon="-0.40298">
        <ele>169.810059</ele>
        <time>2014-09-03T08:42:46Z</time>
      </trkpt>
      <trkpt lat="43.29218" lon="-0.40396">
        <ele>170.290649</ele>
        <time>2014-09-03T08:43:00Z</time>
      </trkpt>
      <trkpt lat="43.29154" lon="-0.40466">
        <ele>170.771362</ele>
        <time>2014-09-03T08:43:16Z</time>
      </trkpt>
      <trkpt lat="43.29143" lon="-0.40477">
        <ele>170.771362</ele>
        <time>2014-09-03T08:43:19Z</time>
      </trkpt>
      <trkpt lat="43.29135" lon="-0.40497">
        <ele>171.732666</ele>
        <time>2014-09-03T08:43:23Z</time>
      </trkpt>
      <trkpt lat="43.29135" lon="-0.40522">
        <ele>171.732666</ele>
        <time>2014-09-03T08:43:27Z</time>
      </trkpt>
      <trkpt lat="43.29177" lon="-0.40645">
        <ele>172.213257</ele>
        <time>2014-09-03T08:43:46Z</time>
      </trkpt>
      <trkpt lat="43.29203" lon="-0.40767">
        <ele>171.732666</ele>
        <time>2014-09-03T08:44:02Z</time>
      </trkpt>
      <trkpt lat="43.29251" lon="-0.40943">
        <ele>171.732666</ele>
        <time>2014-09-03T08:44:24Z</time>
      </trkpt>
      <trkpt lat="43.29302" lon="-0.41064">
        <ele>172.213257</ele>
        <time>2014-09-03T08:44:41Z</time>
      </trkpt>
      <trkpt lat="43.29371" lon="-0.41198">
        <ele>172.213257</ele>
        <time>2014-09-03T08:44:59Z</time>
      </trkpt>
      <trkpt lat="43.29433" lon="-0.41308">
        <ele>170.290649</ele>
        <time>2014-09-03T08:45:12Z</time>
      </trkpt>
      <trkpt lat="43.29472" lon="-0.41369">
        <ele>169.810059</ele>
        <time>2014-09-03T08:45:19Z</time>
      </trkpt>
      <trkpt lat="43.29565" lon="-0.41444">
        <ele>167.887329</ele>
        <time>2014-09-03T08:45:32Z</time>
      </trkpt>
      <trkpt lat="43.29577" lon="-0.41455">
        <ele>168.368042</ele>
        <time>2014-09-03T08:45:34Z</time>
      </trkpt>
      <trkpt lat="43.29608" lon="-0.4146">
        <ele>168.368042</ele>
        <time>2014-09-03T08:45:39Z</time>
      </trkpt>
      <trkpt lat="43.29642" lon="-0.41422">
        <ele>167.406738</ele>
        <time>2014-09-03T08:45:48Z</time>
      </trkpt>
      <trkpt lat="43.2964" lon="-0.41419">
        <ele>167.406738</ele>
        <time>2014-09-03T08:45:58Z</time>
      </trkpt>
      <trkpt lat="43.29642" lon="-0.41395">
        <ele>165.484131</ele>
        <time>2014-09-03T08:46:07Z</time>
      </trkpt>
      <trkpt lat="43.29663" lon="-0.4137">
        <ele>163.080811</ele>
        <time>2014-09-03T08:46:11Z</time>
      </trkpt>
      <trkpt lat="43.29676" lon="-0.41371">
        <ele>163.080811</ele>
        <time>2014-09-03T08:46:13Z</time>
      </trkpt>
      <trkpt lat="43.29701" lon="-0.4141">
        <ele>161.638916</ele>
        <time>2014-09-03T08:46:19Z</time>
      </trkpt>
      <trkpt lat="43.29707" lon="-0.41454">
        <ele>162.600098</ele>
        <time>2014-09-03T08:46:24Z</time>
      </trkpt>
      <trkpt lat="43.29722" lon="-0.41479">
        <ele>162.119507</ele>
        <time>2014-09-03T08:46:28Z</time>
      </trkpt>
      <trkpt lat="43.29735" lon="-0.41495">
        <ele>162.600098</ele>
        <time>2014-09-03T08:46:31Z</time>
      </trkpt>
      <trkpt lat="43.29764" lon="-0.41535">
        <ele>161.638916</ele>
        <time>2014-09-03T08:46:38Z</time>
      </trkpt>
      <trkpt lat="43.29781" lon="-0.41601">
        <ele>162.600098</ele>
        <time>2014-09-03T08:46:47Z</time>
      </trkpt>
      <trkpt lat="43.29787" lon="-0.41613">
        <ele>163.080811</ele>
        <time>2014-09-03T08:46:49Z</time>
      </trkpt>
      <trkpt lat="43.29797" lon="-0.41657">
        <ele>163.080811</ele>
        <time>2014-09-03T08:46:55Z</time>
      </trkpt>
      <trkpt lat="43.29798" lon="-0.41689">
        <ele>162.600098</ele>
        <time>2014-09-03T08:46:59Z</time>
      </trkpt>
      <trkpt lat="43.29804" lon="-0.4172">
        <ele>163.080811</ele>
        <time>2014-09-03T08:47:03Z</time>
      </trkpt>
      <trkpt lat="43.29811" lon="-0.41752">
        <ele>163.080811</ele>
        <time>2014-09-03T08:47:07Z</time>
      </trkpt>
      <trkpt lat="43.29814" lon="-0.41785">
        <ele>163.080811</ele>
        <time>2014-09-03T08:47:11Z</time>
      </trkpt>
      <trkpt lat="43.29829" lon="-0.4182">
        <ele>162.119507</ele>
        <time>2014-09-03T08:47:16Z</time>
      </trkpt>
      <trkpt lat="43.29839" lon="-0.41831">
        <ele>162.600098</ele>
        <time>2014-09-03T08:47:18Z</time>
      </trkpt>
      <trkpt lat="43.2985" lon="-0.4186">
        <ele>162.600098</ele>
        <time>2014-09-03T08:47:22Z</time>
      </trkpt>
      <trkpt lat="43.29859" lon="-0.41907">
        <ele>162.119507</ele>
        <time>2014-09-03T08:47:27Z</time>
      </trkpt>
      <trkpt lat="43.29918" lon="-0.41982">
        <ele>160.67749</ele>
        <time>2014-09-03T08:47:39Z</time>
      </trkpt>
      <trkpt lat="43.29923" lon="-0.41989">
        <ele>160.67749</ele>
        <time>2014-09-03T08:47:40Z</time>
      </trkpt>
      <trkpt lat="43.29953" lon="-0.42058">
        <ele>159.235474</ele>
        <time>2014-09-03T08:47:49Z</time>
      </trkpt>
      <trkpt lat="43.29966" lon="-0.42107">
        <ele>159.235474</ele>
        <time>2014-09-03T08:47:55Z</time>
      </trkpt>
      <trkpt lat="43.29991" lon="-0.42168">
        <ele>157.793579</ele>
        <time>2014-09-03T08:48:03Z</time>
      </trkpt>
      <trkpt lat="43.29996" lon="-0.42215">
        <ele>157.793579</ele>
        <time>2014-09-03T08:48:12Z</time>
      </trkpt>
      <trkpt lat="43.29993" lon="-0.4225">
        <ele>158.27417</ele>
        <time>2014-09-03T08:48:17Z</time>
      </trkpt>
      <trkpt lat="43.29998" lon="-0.42281">
        <ele>158.27417</ele>
        <time>2014-09-03T08:48:21Z</time>
      </trkpt>
      <trkpt lat="43.30017" lon="-0.42344">
        <ele>157.793579</ele>
        <time>2014-09-03T08:48:30Z</time>
      </trkpt>
      <trkpt lat="43.30022" lon="-0.42374">
        <ele>158.27417</ele>
        <time>2014-09-03T08:48:34Z</time>
      </trkpt>
      <trkpt lat="43.30038" lon="-0.42414">
        <ele>159.235474</ele>
        <time>2014-09-03T08:48:40Z</time>
      </trkpt>
      <trkpt lat="43.30085" lon="-0.42533">
        <ele>158.754761</ele>
        <time>2014-09-03T08:48:57Z</time>
      </trkpt>
      <trkpt lat="43.30106" lon="-0.42577">
        <ele>158.27417</ele>
        <time>2014-09-03T08:49:03Z</time>
      </trkpt>
      <trkpt lat="43.30118" lon="-0.42615">
        <ele>159.235474</ele>
        <time>2014-09-03T08:49:08Z</time>
      </trkpt>
      <trkpt lat="43.30152" lon="-0.4275">
        <ele>157.793579</ele>
        <time>2014-09-03T08:49:25Z</time>
      </trkpt>
      <trkpt lat="43.30163" lon="-0.42799">
        <ele>158.27417</ele>
        <time>2014-09-03T08:49:31Z</time>
      </trkpt>
      <trkpt lat="43.30171" lon="-0.42822">
        <ele>157.793579</ele>
        <time>2014-09-03T08:49:34Z</time>
      </trkpt>
      <trkpt lat="43.30177" lon="-0.42872">
        <ele>158.27417</ele>
        <time>2014-09-03T08:49:40Z</time>
      </trkpt>
      <trkpt lat="43.30205" lon="-0.42949">
        <ele>157.793579</ele>
        <time>2014-09-03T08:49:50Z</time>
      </trkpt>
      <trkpt lat="43.30221" lon="-0.42988">
        <ele>157.312866</ele>
        <time>2014-09-03T08:49:55Z</time>
      </trkpt>
      <trkpt lat="43.30244" lon="-0.43105">
        <ele>157.312866</ele>
        <time>2014-09-03T08:50:09Z</time>
      </trkpt>
      <trkpt lat="43.30268" lon="-0.43215">
        <ele>157.312866</ele>
        <time>2014-09-03T08:50:23Z</time>
      </trkpt>
      <trkpt lat="43.30269" lon="-0.43223">
        <ele>157.312866</ele>
        <time>2014-09-03T08:50:24Z</time>
      </trkpt>
      <trkpt lat="43.30274" lon="-0.43238">
        <ele>156.832153</ele>
        <time>2014-09-03T08:50:26Z</time>
      </trkpt>
      <trkpt lat="43.30291" lon="-0.43272">
        <ele>156.832153</ele>
        <time>2014-09-03T08:50:31Z</time>
      </trkpt>
      <trkpt lat="43.30339" lon="-0.43369">
        <ele>156.351563</ele>
        <time>2014-09-03T08:50:45Z</time>
      </trkpt>
      <trkpt lat="43.3038" lon="-0.43464">
        <ele>155.390259</ele>
        <time>2014-09-03T08:50:58Z</time>
      </trkpt>
      <trkpt lat="43.30369" lon="-0.43514">
        <ele>155.870972</ele>
        <time>2014-09-03T08:51:05Z</time>
      </trkpt>
      <trkpt lat="43.30374" lon="-0.43546">
        <ele>156.351563</ele>
        <time>2014-09-03T08:51:10Z</time>
      </trkpt>
      <trkpt lat="43.3038" lon="-0.43556">
        <ele>157.793579</ele>
        <time>2014-09-03T08:51:12Z</time>
      </trkpt>
      <trkpt lat="43.30393" lon="-0.43579">
        <ele>157.793579</ele>
        <time>2014-09-03T08:51:18Z</time>
      </trkpt>
      <trkpt lat="43.30414" lon="-0.43614">
        <ele>157.312866</ele>
        <time>2014-09-03T08:51:25Z</time>
      </trkpt>
      <trkpt lat="43.30449" lon="-0.43718">
        <ele>157.793579</ele>
        <time>2014-09-03T08:51:41Z</time>
      </trkpt>
      <trkpt lat="43.30477" lon="-0.43768">
        <ele>157.793579</ele>
        <time>2014-09-03T08:51:49Z</time>
      </trkpt>
      <trkpt lat="43.30485" lon="-0.43797">
        <ele>157.312866</ele>
        <time>2014-09-03T08:51:53Z</time>
      </trkpt>
      <trkpt lat="43.3049" lon="-0.4383">
        <ele>157.312866</ele>
        <time>2014-09-03T08:51:57Z</time>
      </trkpt>
      <trkpt lat="43.30539" lon="-0.4392">
        <ele>155.870972</ele>
        <time>2014-09-03T08:52:11Z</time>
      </trkpt>
      <trkpt lat="43.30594" lon="-0.44019">
        <ele>154.428955</ele>
        <time>2014-09-03T08:52:27Z</time>
      </trkpt>
      <trkpt lat="43.30607" lon="-0.44038">
        <ele>153.948364</ele>
        <time>2014-09-03T08:52:30Z</time>
      </trkpt>
      <trkpt lat="43.30665" lon="-0.4413">
        <ele>152.986938</ele>
        <time>2014-09-03T08:52:44Z</time>
      </trkpt>
      <trkpt lat="43.30684" lon="-0.44163">
        <ele>153.467651</ele>
        <time>2014-09-03T08:52:49Z</time>
      </trkpt>
      <trkpt lat="43.30718" lon="-0.44224">
        <ele>152.506348</ele>
        <time>2014-09-03T08:52:58Z</time>
      </trkpt>
      <trkpt lat="43.30755" lon="-0.4435">
        <ele>152.025757</ele>
        <time>2014-09-03T08:53:14Z</time>
      </trkpt>
      <trkpt lat="43.30783" lon="-0.44488">
        <ele>152.025757</ele>
        <time>2014-09-03T08:53:31Z</time>
      </trkpt>
      <trkpt lat="43.30795" lon="-0.4454">
        <ele>151.064209</ele>
        <time>2014-09-03T08:53:38Z</time>
      </trkpt>
      <trkpt lat="43.30807" lon="-0.44568">
        <ele>151.544922</ele>
        <time>2014-09-03T08:53:42Z</time>
      </trkpt>
      <trkpt lat="43.30819" lon="-0.44588">
        <ele>151.544922</ele>
        <time>2014-09-03T08:53:45Z</time>
      </trkpt>
      <trkpt lat="43.30824" lon="-0.44603">
        <ele>152.506348</ele>
        <time>2014-09-03T08:53:47Z</time>
      </trkpt>
      <trkpt lat="43.30832" lon="-0.44629">
        <ele>153.948364</ele>
        <time>2014-09-03T08:53:51Z</time>
      </trkpt>
      <trkpt lat="43.30846" lon="-0.44649">
        <ele>152.506348</ele>
        <time>2014-09-03T08:53:55Z</time>
      </trkpt>
      <trkpt lat="43.30889" lon="-0.44717">
        <ele>151.064209</ele>
        <time>2014-09-03T08:54:05Z</time>
      </trkpt>
      <trkpt lat="43.30908" lon="-0.44739">
        <ele>150.583618</ele>
        <time>2014-09-03T08:54:09Z</time>
      </trkpt>
      <trkpt lat="43.30918" lon="-0.44748">
        <ele>151.064209</ele>
        <time>2014-09-03T08:54:11Z</time>
      </trkpt>
      <trkpt lat="43.30934" lon="-0.44758">
        <ele>150.583618</ele>
        <time>2014-09-03T08:54:14Z</time>
      </trkpt>
      <trkpt lat="43.30954" lon="-0.44779">
        <ele>150.103027</ele>
        <time>2014-09-03T08:54:18Z</time>
      </trkpt>
      <trkpt lat="43.31018" lon="-0.44872">
        <ele>150.103027</ele>
        <time>2014-09-03T08:54:34Z</time>
      </trkpt>
      <trkpt lat="43.31109" lon="-0.44935">
        <ele>150.103027</ele>
        <time>2014-09-03T08:54:51Z</time>
      </trkpt>
      <trkpt lat="43.31203" lon="-0.45015">
        <ele>150.103027</ele>
        <time>2014-09-03T08:55:10Z</time>
      </trkpt>
      <trkpt lat="43.31234" lon="-0.45038">
        <ele>150.103027</ele>
        <time>2014-09-03T08:55:16Z</time>
      </trkpt>
      <trkpt lat="43.31274" lon="-0.45059">
        <ele>149.622314</ele>
        <time>2014-09-03T08:55:23Z</time>
      </trkpt>
      <trkpt lat="43.31357" lon="-0.45113">
        <ele>149.622314</ele>
        <time>2014-09-03T08:55:38Z</time>
      </trkpt>
      <trkpt lat="43.3142" lon="-0.45128">
        <ele>149.141602</ele>
        <time>2014-09-03T08:55:48Z</time>
      </trkpt>
      <trkpt lat="43.31443" lon="-0.4514">
        <ele>150.103027</ele>
        <time>2014-09-03T08:55:52Z</time>
      </trkpt>
      <trkpt lat="43.31471" lon="-0.45158">
        <ele>151.544922</ele>
        <time>2014-09-03T08:55:58Z</time>
      </trkpt>
      <trkpt lat="43.31494" lon="-0.45161">
        <ele>151.064209</ele>
        <time>2014-09-03T08:56:02Z</time>
      </trkpt>
      <trkpt lat="43.31539" lon="-0.45178">
        <ele>150.583618</ele>
        <time>2014-09-03T08:56:10Z</time>
      </trkpt>
      <trkpt lat="43.31559" lon="-0.45192">
        <ele>151.064209</ele>
        <time>2014-09-03T08:56:14Z</time>
      </trkpt>
      <trkpt lat="43.31615" lon="-0.45192">
        <ele>150.583618</ele>
        <time>2014-09-03T08:56:23Z</time>
      </trkpt>
      <trkpt lat="43.31695" lon="-0.45182">
        <ele>150.583618</ele>
        <time>2014-09-03T08:56:36Z</time>
      </trkpt>
      <trkpt lat="43.31701" lon="-0.45183">
        <ele>150.103027</ele>
        <time>2014-09-03T08:56:37Z</time>
      </trkpt>
      <trkpt lat="43.31793" lon="-0.45224">
        <ele>150.103027</ele>
        <time>2014-09-03T08:56:52Z</time>
      </trkpt>
      <trkpt lat="43.31808" lon="-0.45263">
        <ele>150.103027</ele>
        <time>2014-09-03T08:56:58Z</time>
      </trkpt>
      <trkpt lat="43.31811" lon="-0.45293">
        <ele>148.661011</ele>
        <time>2014-09-03T08:57:02Z</time>
      </trkpt>
      <trkpt lat="43.31849" lon="-0.45339">
        <ele>149.622314</ele>
        <time>2014-09-03T08:57:11Z</time>
      </trkpt>
      <trkpt lat="43.31869" lon="-0.45355">
        <ele>149.141602</ele>
        <time>2014-09-03T08:57:15Z</time>
      </trkpt>
      <trkpt lat="43.319" lon="-0.45403">
        <ele>149.141602</ele>
        <time>2014-09-03T08:57:23Z</time>
      </trkpt>
      <trkpt lat="43.31966" lon="-0.45457">
        <ele>149.622314</ele>
        <time>2014-09-03T08:57:36Z</time>
      </trkpt>
      <trkpt lat="43.32054" lon="-0.45502">
        <ele>149.141602</ele>
        <time>2014-09-03T08:57:52Z</time>
      </trkpt>
      <trkpt lat="43.32141" lon="-0.45546">
        <ele>149.141602</ele>
        <time>2014-09-03T08:58:08Z</time>
      </trkpt>
      <trkpt lat="43.32232" lon="-0.456">
        <ele>150.103027</ele>
        <time>2014-09-03T08:58:25Z</time>
      </trkpt>
      <trkpt lat="43.32331" lon="-0.45675">
        <ele>148.661011</ele>
        <time>2014-09-03T08:58:44Z</time>
      </trkpt>
      <trkpt lat="43.32425" lon="-0.45732">
        <ele>147.699707</ele>
        <time>2014-09-03T08:59:00Z</time>
      </trkpt>
      <trkpt lat="43.32458" lon="-0.45761">
        <ele>147.699707</ele>
        <time>2014-09-03T08:59:06Z</time>
      </trkpt>
      <trkpt lat="43.32484" lon="-0.458">
        <ele>147.218994</ele>
        <time>2014-09-03T08:59:12Z</time>
      </trkpt>
      <trkpt lat="43.32499" lon="-0.45817">
        <ele>147.699707</ele>
        <time>2014-09-03T08:59:15Z</time>
      </trkpt>
      <trkpt lat="43.32581" lon="-0.45905">
        <ele>146.738403</ele>
        <time>2014-09-03T08:59:32Z</time>
      </trkpt>
      <trkpt lat="43.3259" lon="-0.45913">
        <ele>146.738403</ele>
        <time>2014-09-03T08:59:34Z</time>
      </trkpt>
      <trkpt lat="43.32671" lon="-0.45992">
        <ele>146.738403</ele>
        <time>2014-09-03T08:59:51Z</time>
      </trkpt>
      <trkpt lat="43.32734" lon="-0.46083">
        <ele>146.257813</ele>
        <time>2014-09-03T09:00:06Z</time>
      </trkpt>
      <trkpt lat="43.32785" lon="-0.46176">
        <ele>146.738403</ele>
        <time>2014-09-03T09:00:20Z</time>
      </trkpt>
      <trkpt lat="43.32845" lon="-0.46258">
        <ele>146.738403</ele>
        <time>2014-09-03T09:00:34Z</time>
      </trkpt>
      <trkpt lat="43.32906" lon="-0.46339">
        <ele>146.738403</ele>
        <time>2014-09-03T09:00:48Z</time>
      </trkpt>
      <trkpt lat="43.32966" lon="-0.46401">
        <ele>145.7771</ele>
        <time>2014-09-03T09:01:00Z</time>
      </trkpt>
      <trkpt lat="43.32985" lon="-0.46423">
        <ele>145.7771</ele>
        <time>2014-09-03T09:01:04Z</time>
      </trkpt>
      <trkpt lat="43.33009" lon="-0.46439">
        <ele>145.7771</ele>
        <time>2014-09-03T09:01:08Z</time>
      </trkpt>
      <trkpt lat="43.33065" lon="-0.46477">
        <ele>144.815796</ele>
        <time>2014-09-03T09:01:18Z</time>
      </trkpt>
      <trkpt lat="43.33093" lon="-0.46523">
        <ele>144.815796</ele>
        <time>2014-09-03T09:01:25Z</time>
      </trkpt>
      <trkpt lat="43.33112" lon="-0.46556">
        <ele>143.373657</ele>
        <time>2014-09-03T09:01:30Z</time>
      </trkpt>
      <trkpt lat="43.33113" lon="-0.46615">
        <ele>144.335205</ele>
        <time>2014-09-03T09:01:37Z</time>
      </trkpt>
      <trkpt lat="43.33104" lon="-0.46625">
        <ele>144.335205</ele>
        <time>2014-09-03T09:01:39Z</time>
      </trkpt>
      <trkpt lat="43.33084" lon="-0.46642">
        <ele>144.335205</ele>
        <time>2014-09-03T09:01:43Z</time>
      </trkpt>
      <trkpt lat="43.33075" lon="-0.46652">
        <ele>144.335205</ele>
        <time>2014-09-03T09:01:45Z</time>
      </trkpt>
      <trkpt lat="43.33058" lon="-0.46697">
        <ele>144.335205</ele>
        <time>2014-09-03T09:01:51Z</time>
      </trkpt>
      <trkpt lat="43.33036" lon="-0.46725">
        <ele>143.85437</ele>
        <time>2014-09-03T09:01:56Z</time>
      </trkpt>
      <trkpt lat="43.33025" lon="-0.4673">
        <ele>143.85437</ele>
        <time>2014-09-03T09:01:58Z</time>
      </trkpt>
      <trkpt lat="43.33016" lon="-0.46737">
        <ele>144.335205</ele>
        <time>2014-09-03T09:02:00Z</time>
      </trkpt>
      <trkpt lat="43.32976" lon="-0.46783">
        <ele>143.85437</ele>
        <time>2014-09-03T09:02:09Z</time>
      </trkpt>
      <trkpt lat="43.32967" lon="-0.46794">
        <ele>144.335205</ele>
        <time>2014-09-03T09:02:11Z</time>
      </trkpt>
      <trkpt lat="43.32907" lon="-0.4686">
        <ele>144.335205</ele>
        <time>2014-09-03T09:02:24Z</time>
      </trkpt>
      <trkpt lat="43.32852" lon="-0.46942">
        <ele>145.7771</ele>
        <time>2014-09-03T09:02:37Z</time>
      </trkpt>
      <trkpt lat="43.3281" lon="-0.47052">
        <ele>143.85437</ele>
        <time>2014-09-03T09:02:52Z</time>
      </trkpt>
      <trkpt lat="43.32817" lon="-0.47153">
        <ele>143.373657</ele>
        <time>2014-09-03T09:03:04Z</time>
      </trkpt>
      <trkpt lat="43.32813" lon="-0.47223">
        <ele>143.85437</ele>
        <time>2014-09-03T09:03:12Z</time>
      </trkpt>
      <trkpt lat="43.32815" lon="-0.47258">
        <ele>142.893066</ele>
        <time>2014-09-03T09:03:16Z</time>
      </trkpt>
      <trkpt lat="43.32835" lon="-0.47397">
        <ele>141.931763</ele>
        <time>2014-09-03T09:03:32Z</time>
      </trkpt>
      <trkpt lat="43.32848" lon="-0.47458">
        <ele>142.893066</ele>
        <time>2014-09-03T09:03:39Z</time>
      </trkpt>
      <trkpt lat="43.32855" lon="-0.47473">
        <ele>142.412476</ele>
        <time>2014-09-03T09:03:41Z</time>
      </trkpt>
      <trkpt lat="43.32867" lon="-0.47492">
        <ele>142.893066</ele>
        <time>2014-09-03T09:03:44Z</time>
      </trkpt>
      <trkpt lat="43.32857" lon="-0.47527">
        <ele>142.893066</ele>
        <time>2014-09-03T09:03:50Z</time>
      </trkpt>
      <trkpt lat="43.32839" lon="-0.47536">
        <ele>142.893066</ele>
        <time>2014-09-03T09:03:53Z</time>
      </trkpt>
      <trkpt lat="43.32835" lon="-0.4758">
        <ele>142.412476</ele>
        <time>2014-09-03T09:03:59Z</time>
      </trkpt>
      <trkpt lat="43.32874" lon="-0.47677">
        <ele>142.412476</ele>
        <time>2014-09-03T09:04:12Z</time>
      </trkpt>
      <trkpt lat="43.32877" lon="-0.47685">
        <ele>142.893066</ele>
        <time>2014-09-03T09:04:13Z</time>
      </trkpt>
      <trkpt lat="43.32926" lon="-0.47808">
        <ele>142.412476</ele>
        <time>2014-09-03T09:04:30Z</time>
      </trkpt>
      <trkpt lat="43.32928" lon="-0.47815">
        <ele>142.412476</ele>
        <time>2014-09-03T09:04:31Z</time>
      </trkpt>
      <trkpt lat="43.32966" lon="-0.47902">
        <ele>143.373657</ele>
        <time>2014-09-03T09:04:43Z</time>
      </trkpt>
      <trkpt lat="43.32986" lon="-0.47936">
        <ele>142.412476</ele>
        <time>2014-09-03T09:04:48Z</time>
      </trkpt>
      <trkpt lat="43.33014" lon="-0.48036">
        <ele>142.412476</ele>
        <time>2014-09-03T09:05:00Z</time>
      </trkpt>
      <trkpt lat="43.3304" lon="-0.48084">
        <ele>141.931763</ele>
        <time>2014-09-03T09:05:07Z</time>
      </trkpt>
      <trkpt lat="43.33051" lon="-0.48122">
        <ele>141.45105</ele>
        <time>2014-09-03T09:05:12Z</time>
      </trkpt>
      <trkpt lat="43.3306" lon="-0.48173">
        <ele>141.931763</ele>
        <time>2014-09-03T09:05:18Z</time>
      </trkpt>
      <trkpt lat="43.33061" lon="-0.48205">
        <ele>141.45105</ele>
        <time>2014-09-03T09:05:22Z</time>
      </trkpt>
      <trkpt lat="43.3305" lon="-0.48255">
        <ele>141.931763</ele>
        <time>2014-09-03T09:05:30Z</time>
      </trkpt>
      <trkpt lat="43.33054" lon="-0.48278">
        <ele>141.45105</ele>
        <time>2014-09-03T09:05:34Z</time>
      </trkpt>
      <trkpt lat="43.33079" lon="-0.48336">
        <ele>141.45105</ele>
        <time>2014-09-03T09:05:43Z</time>
      </trkpt>
      <trkpt lat="43.33091" lon="-0.48353">
        <ele>141.45105</ele>
        <time>2014-09-03T09:05:46Z</time>
      </trkpt>
      <trkpt lat="43.33116" lon="-0.48411">
        <ele>140.970459</ele>
        <time>2014-09-03T09:05:55Z</time>
      </trkpt>
      <trkpt lat="43.3315" lon="-0.48427">
        <ele>141.45105</ele>
        <time>2014-09-03T09:06:01Z</time>
      </trkpt>
      <trkpt lat="43.33181" lon="-0.48441">
        <ele>140.009155</ele>
        <time>2014-09-03T09:06:06Z</time>
      </trkpt>
      <trkpt lat="43.33192" lon="-0.48452">
        <ele>140.489868</ele>
        <time>2014-09-03T09:06:08Z</time>
      </trkpt>
      <trkpt lat="43.33202" lon="-0.48505">
        <ele>140.009155</ele>
        <time>2014-09-03T09:06:14Z</time>
      </trkpt>
      <trkpt lat="43.33199" lon="-0.48528">
        <ele>140.009155</ele>
        <time>2014-09-03T09:06:17Z</time>
      </trkpt>
      <trkpt lat="43.33193" lon="-0.48549">
        <ele>140.009155</ele>
        <time>2014-09-03T09:06:20Z</time>
      </trkpt>
      <trkpt lat="43.33194" lon="-0.4859">
        <ele>140.009155</ele>
        <time>2014-09-03T09:06:25Z</time>
      </trkpt>
      <trkpt lat="43.33247" lon="-0.48684">
        <ele>139.528442</ele>
        <time>2014-09-03T09:06:39Z</time>
      </trkpt>
      <trkpt lat="43.33278" lon="-0.48722">
        <ele>139.047852</ele>
        <time>2014-09-03T09:06:46Z</time>
      </trkpt>
      <trkpt lat="43.33288" lon="-0.48733">
        <ele>139.528442</ele>
        <time>2014-09-03T09:06:48Z</time>
      </trkpt>
      <trkpt lat="43.33305" lon="-0.48766">
        <ele>139.528442</ele>
        <time>2014-09-03T09:06:53Z</time>
      </trkpt>
      <trkpt lat="43.33309" lon="-0.48781">
        <ele>139.047852</ele>
        <time>2014-09-03T09:06:55Z</time>
      </trkpt>
      <trkpt lat="43.33323" lon="-0.48806">
        <ele>139.528442</ele>
        <time>2014-09-03T09:06:59Z</time>
      </trkpt>
      <trkpt lat="43.33359" lon="-0.48846">
        <ele>139.528442</ele>
        <time>2014-09-03T09:07:07Z</time>
      </trkpt>
      <trkpt lat="43.334" lon="-0.48842">
        <ele>140.009155</ele>
        <time>2014-09-03T09:07:15Z</time>
      </trkpt>
      <trkpt lat="43.33404" lon="-0.48838">
        <ele>139.047852</ele>
        <time>2014-09-03T09:07:16Z</time>
      </trkpt>
      <trkpt lat="43.33419" lon="-0.48825">
        <ele>139.528442</ele>
        <time>2014-09-03T09:07:19Z</time>
      </trkpt>
      <trkpt lat="43.33441" lon="-0.48813">
        <ele>139.047852</ele>
        <time>2014-09-03T09:07:23Z</time>
      </trkpt>
      <trkpt lat="43.33457" lon="-0.48833">
        <ele>139.047852</ele>
        <time>2014-09-03T09:07:28Z</time>
      </trkpt>
      <trkpt lat="43.33473" lon="-0.48904">
        <ele>138.086548</ele>
        <time>2014-09-03T09:07:38Z</time>
      </trkpt>
      <trkpt lat="43.33495" lon="-0.48972">
        <ele>138.567261</ele>
        <time>2014-09-03T09:07:48Z</time>
      </trkpt>
      <trkpt lat="43.33531" lon="-0.49064">
        <ele>138.567261</ele>
        <time>2014-09-03T09:08:01Z</time>
      </trkpt>
      <trkpt lat="43.33545" lon="-0.4909">
        <ele>138.567261</ele>
        <time>2014-09-03T09:08:05Z</time>
      </trkpt>
      <trkpt lat="43.33567" lon="-0.4913">
        <ele>137.125244</ele>
        <time>2014-09-03T09:08:12Z</time>
      </trkpt>
      <trkpt lat="43.33578" lon="-0.49144">
        <ele>136.16394</ele>
        <time>2014-09-03T09:08:20Z</time>
      </trkpt>
      <trkpt lat="43.33577" lon="-0.49143">
        <ele>135.683105</ele>
        <time>2014-09-03T09:08:33Z</time>
      </trkpt>
      <trkpt lat="43.33561" lon="-0.49133">
        <ele>137.125244</ele>
        <time>2014-09-03T09:08:43Z</time>
      </trkpt>
      <trkpt lat="43.33561" lon="-0.49148">
        <ele>136.16394</ele>
        <time>2014-09-03T09:08:47Z</time>
      </trkpt>
      <trkpt lat="43.33594" lon="-0.49225">
        <ele>136.644653</ele>
        <time>2014-09-03T09:09:03Z</time>
      </trkpt>
      <trkpt lat="43.33605" lon="-0.49248">
        <ele>136.16394</ele>
        <time>2014-09-03T09:09:09Z</time>
      </trkpt>
      <trkpt lat="43.33619" lon="-0.49272">
        <ele>136.644653</ele>
        <time>2014-09-03T09:09:15Z</time>
      </trkpt>
      <trkpt lat="43.33639" lon="-0.49274">
        <ele>135.683105</ele>
        <time>2014-09-03T09:09:20Z</time>
      </trkpt>
      <trkpt lat="43.33672" lon="-0.49292">
        <ele>136.16394</ele>
        <time>2014-09-03T09:09:27Z</time>
      </trkpt>
      <trkpt lat="43.33708" lon="-0.49353">
        <ele>136.644653</ele>
        <time>2014-09-03T09:09:38Z</time>
      </trkpt>
      <trkpt lat="43.33709" lon="-0.49361">
        <ele>136.644653</ele>
        <time>2014-09-03T09:09:39Z</time>
      </trkpt>
      <trkpt lat="43.3372" lon="-0.49414">
        <ele>136.644653</ele>
        <time>2014-09-03T09:09:46Z</time>
      </trkpt>
      <trkpt lat="43.33733" lon="-0.49441">
        <ele>136.16394</ele>
        <time>2014-09-03T09:09:50Z</time>
      </trkpt>
      <trkpt lat="43.33774" lon="-0.49466">
        <ele>135.683105</ele>
        <time>2014-09-03T09:09:58Z</time>
      </trkpt>
      <trkpt lat="43.33782" lon="-0.49477">
        <ele>135.683105</ele>
        <time>2014-09-03T09:10:00Z</time>
      </trkpt>
      <trkpt lat="43.33796" lon="-0.49503">
        <ele>135.683105</ele>
        <time>2014-09-03T09:10:04Z</time>
      </trkpt>
      <trkpt lat="43.33806" lon="-0.49532">
        <ele>135.683105</ele>
        <time>2014-09-03T09:10:08Z</time>
      </trkpt>
      <trkpt lat="43.33819" lon="-0.49558">
        <ele>135.202515</ele>
        <time>2014-09-03T09:10:12Z</time>
      </trkpt>
      <trkpt lat="43.33829" lon="-0.49593">
        <ele>135.683105</ele>
        <time>2014-09-03T09:10:17Z</time>
      </trkpt>
      <trkpt lat="43.3383" lon="-0.49608">
        <ele>135.683105</ele>
        <time>2014-09-03T09:10:19Z</time>
      </trkpt>
      <trkpt lat="43.3383" lon="-0.49623">
        <ele>135.683105</ele>
        <time>2014-09-03T09:10:21Z</time>
      </trkpt>
      <trkpt lat="43.33837" lon="-0.49669">
        <ele>135.683105</ele>
        <time>2014-09-03T09:10:27Z</time>
      </trkpt>
      <trkpt lat="43.33869" lon="-0.49764">
        <ele>135.683105</ele>
        <time>2014-09-03T09:10:40Z</time>
      </trkpt>
      <trkpt lat="43.33868" lon="-0.49798">
        <ele>135.683105</ele>
        <time>2014-09-03T09:10:48Z</time>
      </trkpt>
      <trkpt lat="43.33875" lon="-0.49822">
        <ele>135.202515</ele>
        <time>2014-09-03T09:10:53Z</time>
      </trkpt>
      <trkpt lat="43.33901" lon="-0.49874">
        <ele>136.16394</ele>
        <time>2014-09-03T09:11:01Z</time>
      </trkpt>
      <trkpt lat="43.33915" lon="-0.49894">
        <ele>137.125244</ele>
        <time>2014-09-03T09:11:05Z</time>
      </trkpt>
      <trkpt lat="43.3393" lon="-0.49911">
        <ele>137.125244</ele>
        <time>2014-09-03T09:11:09Z</time>
      </trkpt>
      <trkpt lat="43.33953" lon="-0.49951">
        <ele>134.721924</ele>
        <time>2014-09-03T09:11:15Z</time>
      </trkpt>
      <trkpt lat="43.33957" lon="-0.49958">
        <ele>134.721924</ele>
        <time>2014-09-03T09:11:16Z</time>
      </trkpt>
      <trkpt lat="43.33987" lon="-0.50077">
        <ele>133.279907</ele>
        <time>2014-09-03T09:11:31Z</time>
      </trkpt>
      <trkpt lat="43.34007" lon="-0.50128">
        <ele>133.279907</ele>
        <time>2014-09-03T09:11:38Z</time>
      </trkpt>
      <trkpt lat="43.34062" lon="-0.50192">
        <ele>133.279907</ele>
        <time>2014-09-03T09:11:50Z</time>
      </trkpt>
      <trkpt lat="43.34113" lon="-0.50256">
        <ele>135.683105</ele>
        <time>2014-09-03T09:12:03Z</time>
      </trkpt>
      <trkpt lat="43.34117" lon="-0.5026">
        <ele>135.202515</ele>
        <time>2014-09-03T09:12:04Z</time>
      </trkpt>
      <trkpt lat="43.34159" lon="-0.50313">
        <ele>135.202515</ele>
        <time>2014-09-03T09:12:14Z</time>
      </trkpt>
      <trkpt lat="43.34184" lon="-0.50328">
        <ele>134.721924</ele>
        <time>2014-09-03T09:12:19Z</time>
      </trkpt>
      <trkpt lat="43.34266" lon="-0.50387">
        <ele>133.760498</ele>
        <time>2014-09-03T09:12:34Z</time>
      </trkpt>
      <trkpt lat="43.34276" lon="-0.50397">
        <ele>133.279907</ele>
        <time>2014-09-03T09:12:36Z</time>
      </trkpt>
      <trkpt lat="43.34318" lon="-0.50453">
        <ele>134.241211</ele>
        <time>2014-09-03T09:12:46Z</time>
      </trkpt>
      <trkpt lat="43.34334" lon="-0.50476">
        <ele>133.760498</ele>
        <time>2014-09-03T09:12:50Z</time>
      </trkpt>
      <trkpt lat="43.34355" lon="-0.5049">
        <ele>133.760498</ele>
        <time>2014-09-03T09:12:54Z</time>
      </trkpt>
      <trkpt lat="43.34372" lon="-0.50494">
        <ele>133.760498</ele>
        <time>2014-09-03T09:12:57Z</time>
      </trkpt>
      <trkpt lat="43.34413" lon="-0.50517">
        <ele>133.279907</ele>
        <time>2014-09-03T09:13:04Z</time>
      </trkpt>
      <trkpt lat="43.34432" lon="-0.5054">
        <ele>133.279907</ele>
        <time>2014-09-03T09:13:08Z</time>
      </trkpt>
      <trkpt lat="43.34443" lon="-0.50558">
        <ele>133.279907</ele>
        <time>2014-09-03T09:13:11Z</time>
      </trkpt>
      <trkpt lat="43.34516" lon="-0.50631">
        <ele>132.799316</ele>
        <time>2014-09-03T09:13:26Z</time>
      </trkpt>
      <trkpt lat="43.34585" lon="-0.50726">
        <ele>132.318604</ele>
        <time>2014-09-03T09:13:42Z</time>
      </trkpt>
      <trkpt lat="43.34594" lon="-0.50736">
        <ele>131.837891</ele>
        <time>2014-09-03T09:13:44Z</time>
      </trkpt>
      <trkpt lat="43.34627" lon="-0.50806">
        <ele>131.837891</ele>
        <time>2014-09-03T09:13:54Z</time>
      </trkpt>
      <trkpt lat="43.34673" lon="-0.50864">
        <ele>131.837891</ele>
        <time>2014-09-03T09:14:05Z</time>
      </trkpt>
      <trkpt lat="43.34724" lon="-0.50958">
        <ele>131.837891</ele>
        <time>2014-09-03T09:14:19Z</time>
      </trkpt>
      <trkpt lat="43.3475" lon="-0.51012">
        <ele>131.837891</ele>
        <time>2014-09-03T09:14:27Z</time>
      </trkpt>
      <trkpt lat="43.34745" lon="-0.51071">
        <ele>131.837891</ele>
        <time>2014-09-03T09:14:35Z</time>
      </trkpt>
      <trkpt lat="43.34738" lon="-0.5111">
        <ele>131.837891</ele>
        <time>2014-09-03T09:14:40Z</time>
      </trkpt>
      <trkpt lat="43.34722" lon="-0.51158">
        <ele>131.3573</ele>
        <time>2014-09-03T09:14:46Z</time>
      </trkpt>
      <trkpt lat="43.34698" lon="-0.51239">
        <ele>130.876709</ele>
        <time>2014-09-03T09:15:00Z</time>
      </trkpt>
      <trkpt lat="43.34697" lon="-0.51252">
        <ele>130.395996</ele>
        <time>2014-09-03T09:15:07Z</time>
      </trkpt>
      <trkpt lat="43.34704" lon="-0.5126">
        <ele>130.395996</ele>
        <time>2014-09-03T09:15:15Z</time>
      </trkpt>
      <trkpt lat="43.34727" lon="-0.51261">
        <ele>130.876709</ele>
        <time>2014-09-03T09:15:24Z</time>
      </trkpt>
      <trkpt lat="43.34749" lon="-0.51267">
        <ele>130.876709</ele>
        <time>2014-09-03T09:15:28Z</time>
      </trkpt>
      <trkpt lat="43.3483" lon="-0.51298">
        <ele>130.876709</ele>
        <time>2014-09-03T09:15:43Z</time>
      </trkpt>
      <trkpt lat="43.34841" lon="-0.51303">
        <ele>130.395996</ele>
        <time>2014-09-03T09:15:45Z</time>
      </trkpt>
      <trkpt lat="43.34903" lon="-0.51355">
        <ele>129.915283</ele>
        <time>2014-09-03T09:15:58Z</time>
      </trkpt>
      <trkpt lat="43.3498" lon="-0.51407">
        <ele>130.395996</ele>
        <time>2014-09-03T09:16:14Z</time>
      </trkpt>
      <trkpt lat="43.34994" lon="-0.51417">
        <ele>129.915283</ele>
        <time>2014-09-03T09:16:17Z</time>
      </trkpt>
      <trkpt lat="43.35027" lon="-0.51415">
        <ele>129.915283</ele>
        <time>2014-09-03T09:16:23Z</time>
      </trkpt>
      <trkpt lat="43.35042" lon="-0.51402">
        <ele>129.915283</ele>
        <time>2014-09-03T09:16:26Z</time>
      </trkpt>
      <trkpt lat="43.35075" lon="-0.5142">
        <ele>130.876709</ele>
        <time>2014-09-03T09:16:33Z</time>
      </trkpt>
      <trkpt lat="43.35077" lon="-0.51436">
        <ele>130.876709</ele>
        <time>2014-09-03T09:16:35Z</time>
      </trkpt>
      <trkpt lat="43.35083" lon="-0.51458">
        <ele>130.395996</ele>
        <time>2014-09-03T09:16:38Z</time>
      </trkpt>
      <trkpt lat="43.3512" lon="-0.51509">
        <ele>130.395996</ele>
        <time>2014-09-03T09:16:47Z</time>
      </trkpt>
      <trkpt lat="43.3514" lon="-0.51518">
        <ele>129.434692</ele>
        <time>2014-09-03T09:16:51Z</time>
      </trkpt>
      <trkpt lat="43.35191" lon="-0.51514">
        <ele>129.915283</ele>
        <time>2014-09-03T09:17:00Z</time>
      </trkpt>
      <trkpt lat="43.35222" lon="-0.515">
        <ele>128.473389</ele>
        <time>2014-09-03T09:17:05Z</time>
      </trkpt>
      <trkpt lat="43.35245" lon="-0.51506">
        <ele>128.473389</ele>
        <time>2014-09-03T09:17:09Z</time>
      </trkpt>
      <trkpt lat="43.3527" lon="-0.51534">
        <ele>128.473389</ele>
        <time>2014-09-03T09:17:14Z</time>
      </trkpt>
      <trkpt lat="43.35323" lon="-0.516">
        <ele>128.473389</ele>
        <time>2014-09-03T09:17:27Z</time>
      </trkpt>
      <trkpt lat="43.35345" lon="-0.51617">
        <ele>128.954102</ele>
        <time>2014-09-03T09:17:32Z</time>
      </trkpt>
      <trkpt lat="43.3541" lon="-0.51663">
        <ele>129.434692</ele>
        <time>2014-09-03T09:17:45Z</time>
      </trkpt>
      <trkpt lat="43.35429" lon="-0.51678">
        <ele>129.915283</ele>
        <time>2014-09-03T09:17:49Z</time>
      </trkpt>
      <trkpt lat="43.35435" lon="-0.51692">
        <ele>130.876709</ele>
        <time>2014-09-03T09:17:52Z</time>
      </trkpt>
      <trkpt lat="43.35436" lon="-0.51704">
        <ele>129.915283</ele>
        <time>2014-09-03T09:17:54Z</time>
      </trkpt>
      <trkpt lat="43.3544" lon="-0.51747">
        <ele>127.992554</ele>
        <time>2014-09-03T09:17:59Z</time>
      </trkpt>
      <trkpt lat="43.35452" lon="-0.51774">
        <ele>128.954102</ele>
        <time>2014-09-03T09:18:03Z</time>
      </trkpt>
      <trkpt lat="43.35466" lon="-0.51788">
        <ele>128.473389</ele>
        <time>2014-09-03T09:18:06Z</time>
      </trkpt>
      <trkpt lat="43.35478" lon="-0.51807">
        <ele>128.473389</ele>
        <time>2014-09-03T09:18:09Z</time>
      </trkpt>
      <trkpt lat="43.35493" lon="-0.51829">
        <ele>128.473389</ele>
        <time>2014-09-03T09:18:13Z</time>
      </trkpt>
      <trkpt lat="43.35509" lon="-0.51847">
        <ele>127.992554</ele>
        <time>2014-09-03T09:18:17Z</time>
      </trkpt>
      <trkpt lat="43.35539" lon="-0.51893">
        <ele>127.992554</ele>
        <time>2014-09-03T09:18:25Z</time>
      </trkpt>
      <trkpt lat="43.35567" lon="-0.51919">
        <ele>127.511963</ele>
        <time>2014-09-03T09:18:32Z</time>
      </trkpt>
      <trkpt lat="43.35618" lon="-0.52017">
        <ele>127.511963</ele>
        <time>2014-09-03T09:18:48Z</time>
      </trkpt>
      <trkpt lat="43.35647" lon="-0.52088">
        <ele>127.511963</ele>
        <time>2014-09-03T09:18:58Z</time>
      </trkpt>
      <trkpt lat="43.3565" lon="-0.52126">
        <ele>127.031372</ele>
        <time>2014-09-03T09:19:03Z</time>
      </trkpt>
      <trkpt lat="43.35635" lon="-0.52195">
        <ele>126.069946</ele>
        <time>2014-09-03T09:19:16Z</time>
      </trkpt>
      <trkpt lat="43.35635" lon="-0.52195">
        <ele>126.069946</ele>
        <time>2014-09-03T09:19:30Z</time>
      </trkpt>
      <trkpt lat="43.35616" lon="-0.52202">
        <ele>126.069946</ele>
        <time>2014-09-03T09:20:28Z</time>
      </trkpt>
      <trkpt lat="43.35599" lon="-0.52197">
        <ele>126.069946</ele>
        <time>2014-09-03T09:20:32Z</time>
      </trkpt>
      <trkpt lat="43.35564" lon="-0.52188">
        <ele>126.069946</ele>
        <time>2014-09-03T09:20:40Z</time>
      </trkpt>
      <trkpt lat="43.35522" lon="-0.52225">
        <ele>126.550659</ele>
        <time>2014-09-03T09:20:51Z</time>
      </trkpt>
      <trkpt lat="43.35484" lon="-0.52334">
        <ele>127.031372</ele>
        <time>2014-09-03T09:21:08Z</time>
      </trkpt>
      <trkpt lat="43.35466" lon="-0.52468">
        <ele>127.031372</ele>
        <time>2014-09-03T09:21:26Z</time>
      </trkpt>
      <trkpt lat="43.35485" lon="-0.52643">
        <ele>126.550659</ele>
        <time>2014-09-03T09:21:49Z</time>
      </trkpt>
      <trkpt lat="43.35511" lon="-0.52813">
        <ele>126.069946</ele>
        <time>2014-09-03T09:22:11Z</time>
      </trkpt>
      <trkpt lat="43.35508" lon="-0.53">
        <ele>125.589355</ele>
        <time>2014-09-03T09:22:34Z</time>
      </trkpt>
      <trkpt lat="43.35508" lon="-0.53007">
        <ele>125.108765</ele>
        <time>2014-09-03T09:22:35Z</time>
      </trkpt>
      <trkpt lat="43.35521" lon="-0.53038">
        <ele>125.589355</ele>
        <time>2014-09-03T09:22:40Z</time>
      </trkpt>
      <trkpt lat="43.35536" lon="-0.53079">
        <ele>125.589355</ele>
        <time>2014-09-03T09:22:46Z</time>
      </trkpt>
      <trkpt lat="43.35562" lon="-0.53206">
        <ele>125.108765</ele>
        <time>2014-09-03T09:23:03Z</time>
      </trkpt>
      <trkpt lat="43.35599" lon="-0.53318">
        <ele>123.666748</ele>
        <time>2014-09-03T09:23:18Z</time>
      </trkpt>
      <trkpt lat="43.35675" lon="-0.53453">
        <ele>124.628052</ele>
        <time>2014-09-03T09:23:39Z</time>
      </trkpt>
      <trkpt lat="43.35704" lon="-0.53533">
        <ele>124.147339</ele>
        <time>2014-09-03T09:23:50Z</time>
      </trkpt>
      <trkpt lat="43.35713" lon="-0.53632">
        <ele>123.186157</ele>
        <time>2014-09-03T09:24:02Z</time>
      </trkpt>
      <trkpt lat="43.35717" lon="-0.53697">
        <ele>122.705444</ele>
        <time>2014-09-03T09:24:10Z</time>
      </trkpt>
      <trkpt lat="43.35728" lon="-0.53734">
        <ele>123.186157</ele>
        <time>2014-09-03T09:24:15Z</time>
      </trkpt>
      <trkpt lat="43.35782" lon="-0.53833">
        <ele>123.666748</ele>
        <time>2014-09-03T09:24:31Z</time>
      </trkpt>
      <trkpt lat="43.35854" lon="-0.5392">
        <ele>122.705444</ele>
        <time>2014-09-03T09:24:46Z</time>
      </trkpt>
      <trkpt lat="43.35868" lon="-0.53946">
        <ele>123.186157</ele>
        <time>2014-09-03T09:24:50Z</time>
      </trkpt>
      <trkpt lat="43.35893" lon="-0.54063">
        <ele>122.224731</ele>
        <time>2014-09-03T09:25:05Z</time>
      </trkpt>
      <trkpt lat="43.35913" lon="-0.54121">
        <ele>123.186157</ele>
        <time>2014-09-03T09:25:13Z</time>
      </trkpt>
      <trkpt lat="43.35982" lon="-0.54185">
        <ele>122.224731</ele>
        <time>2014-09-03T09:25:27Z</time>
      </trkpt>
      <trkpt lat="43.3601" lon="-0.54226">
        <ele>122.224731</ele>
        <time>2014-09-03T09:25:34Z</time>
      </trkpt>
      <trkpt lat="43.36028" lon="-0.54266">
        <ele>122.705444</ele>
        <time>2014-09-03T09:25:40Z</time>
      </trkpt>
      <trkpt lat="43.36087" lon="-0.54353">
        <ele>123.666748</ele>
        <time>2014-09-03T09:25:56Z</time>
      </trkpt>
      <trkpt lat="43.36116" lon="-0.54401">
        <ele>122.705444</ele>
        <time>2014-09-03T09:26:04Z</time>
      </trkpt>
      <trkpt lat="43.3616" lon="-0.54476">
        <ele>121.744141</ele>
        <time>2014-09-03T09:26:16Z</time>
      </trkpt>
      <trkpt lat="43.36188" lon="-0.54499">
        <ele>122.224731</ele>
        <time>2014-09-03T09:26:22Z</time>
      </trkpt>
      <trkpt lat="43.36202" lon="-0.5452">
        <ele>122.224731</ele>
        <time>2014-09-03T09:26:26Z</time>
      </trkpt>
      <trkpt lat="43.36206" lon="-0.5456">
        <ele>123.186157</ele>
        <time>2014-09-03T09:26:32Z</time>
      </trkpt>
      <trkpt lat="43.36211" lon="-0.5459">
        <ele>123.186157</ele>
        <time>2014-09-03T09:26:37Z</time>
      </trkpt>
      <trkpt lat="43.36211" lon="-0.54673">
        <ele>121.744141</ele>
        <time>2014-09-03T09:26:49Z</time>
      </trkpt>
      <trkpt lat="43.3621" lon="-0.5471">
        <ele>120.782837</ele>
        <time>2014-09-03T09:26:54Z</time>
      </trkpt>
      <trkpt lat="43.36212" lon="-0.54732">
        <ele>120.782837</ele>
        <time>2014-09-03T09:26:57Z</time>
      </trkpt>
      <trkpt lat="43.36216" lon="-0.54754">
        <ele>120.782837</ele>
        <time>2014-09-03T09:27:00Z</time>
      </trkpt>
      <trkpt lat="43.36256" lon="-0.54866">
        <ele>121.744141</ele>
        <time>2014-09-03T09:27:16Z</time>
      </trkpt>
      <trkpt lat="43.36258" lon="-0.54873">
        <ele>121.26355</ele>
        <time>2014-09-03T09:27:17Z</time>
      </trkpt>
      <trkpt lat="43.36263" lon="-0.54901">
        <ele>120.302124</ele>
        <time>2014-09-03T09:27:21Z</time>
      </trkpt>
      <trkpt lat="43.36261" lon="-0.55011">
        <ele>120.302124</ele>
        <time>2014-09-03T09:27:36Z</time>
      </trkpt>
      <trkpt lat="43.36264" lon="-0.5503">
        <ele>120.782837</ele>
        <time>2014-09-03T09:27:39Z</time>
      </trkpt>
      <trkpt lat="43.36278" lon="-0.55069">
        <ele>121.26355</ele>
        <time>2014-09-03T09:27:46Z</time>
      </trkpt>
      <trkpt lat="43.36282" lon="-0.55079">
        <ele>121.26355</ele>
        <time>2014-09-03T09:27:48Z</time>
      </trkpt>
      <trkpt lat="43.36297" lon="-0.55102">
        <ele>120.782837</ele>
        <time>2014-09-03T09:27:53Z</time>
      </trkpt>
      <trkpt lat="43.36306" lon="-0.55118">
        <ele>120.782837</ele>
        <time>2014-09-03T09:27:56Z</time>
      </trkpt>
      <trkpt lat="43.36362" lon="-0.55182">
        <ele>120.782837</ele>
        <time>2014-09-03T09:28:10Z</time>
      </trkpt>
      <trkpt lat="43.36417" lon="-0.5525">
        <ele>120.782837</ele>
        <time>2014-09-03T09:28:24Z</time>
      </trkpt>
      <trkpt lat="43.36487" lon="-0.55324">
        <ele>119.821411</ele>
        <time>2014-09-03T09:28:40Z</time>
      </trkpt>
      <trkpt lat="43.36538" lon="-0.55415">
        <ele>119.821411</ele>
        <time>2014-09-03T09:28:55Z</time>
      </trkpt>
      <trkpt lat="43.36587" lon="-0.55515">
        <ele>120.782837</ele>
        <time>2014-09-03T09:29:11Z</time>
      </trkpt>
      <trkpt lat="43.36621" lon="-0.55584">
        <ele>120.302124</ele>
        <time>2014-09-03T09:29:22Z</time>
      </trkpt>
      <trkpt lat="43.36647" lon="-0.55633">
        <ele>120.302124</ele>
        <time>2014-09-03T09:29:30Z</time>
      </trkpt>
      <trkpt lat="43.36654" lon="-0.55644">
        <ele>119.821411</ele>
        <time>2014-09-03T09:29:32Z</time>
      </trkpt>
      <trkpt lat="43.3666" lon="-0.55654">
        <ele>119.34082</ele>
        <time>2014-09-03T09:29:34Z</time>
      </trkpt>
      <trkpt lat="43.36667" lon="-0.55663">
        <ele>119.34082</ele>
        <time>2014-09-03T09:29:36Z</time>
      </trkpt>
      <trkpt lat="43.36683" lon="-0.55692">
        <ele>119.34082</ele>
        <time>2014-09-03T09:29:42Z</time>
      </trkpt>
      <trkpt lat="43.36673" lon="-0.5572">
        <ele>120.302124</ele>
        <time>2014-09-03T09:29:48Z</time>
      </trkpt>
      <trkpt lat="43.36575" lon="-0.5578">
        <ele>120.782837</ele>
        <time>2014-09-03T09:30:08Z</time>
      </trkpt>
      <trkpt lat="43.36471" lon="-0.55823">
        <ele>121.26355</ele>
        <time>2014-09-03T09:30:28Z</time>
      </trkpt>
      <trkpt lat="43.36363" lon="-0.55889">
        <ele>120.782837</ele>
        <time>2014-09-03T09:30:48Z</time>
      </trkpt>
      <trkpt lat="43.36238" lon="-0.55991">
        <ele>120.302124</ele>
        <time>2014-09-03T09:31:12Z</time>
      </trkpt>
      <trkpt lat="43.36131" lon="-0.56059">
        <ele>120.782837</ele>
        <time>2014-09-03T09:31:33Z</time>
      </trkpt>
      <trkpt lat="43.36086" lon="-0.56086">
        <ele>120.782837</ele>
        <time>2014-09-03T09:31:46Z</time>
      </trkpt>
      <trkpt lat="43.36019" lon="-0.56131">
        <ele>120.782837</ele>
        <time>2014-09-03T09:32:01Z</time>
      </trkpt>
      <trkpt lat="43.35944" lon="-0.5617">
        <ele>120.782837</ele>
        <time>2014-09-03T09:32:16Z</time>
      </trkpt>
      <trkpt lat="43.35933" lon="-0.56175">
        <ele>120.782837</ele>
        <time>2014-09-03T09:32:18Z</time>
      </trkpt>
      <trkpt lat="43.35907" lon="-0.56189">
        <ele>120.302124</ele>
        <time>2014-09-03T09:32:23Z</time>
      </trkpt>
      <trkpt lat="43.35869" lon="-0.56223">
        <ele>120.302124</ele>
        <time>2014-09-03T09:32:32Z</time>
      </trkpt>
      <trkpt lat="43.35854" lon="-0.5624">
        <ele>120.782837</ele>
        <time>2014-09-03T09:32:37Z</time>
      </trkpt>
      <trkpt lat="43.35832" lon="-0.56315">
        <ele>120.782837</ele>
        <time>2014-09-03T09:32:48Z</time>
      </trkpt>
      <trkpt lat="43.3583" lon="-0.56346">
        <ele>120.782837</ele>
        <time>2014-09-03T09:32:52Z</time>
      </trkpt>
      <trkpt lat="43.3582" lon="-0.56433">
        <ele>120.302124</ele>
        <time>2014-09-03T09:33:06Z</time>
      </trkpt>
      <trkpt lat="43.3581" lon="-0.56455">
        <ele>119.34082</ele>
        <time>2014-09-03T09:33:16Z</time>
      </trkpt>
      <trkpt lat="43.35807" lon="-0.56454">
        <ele>118.860107</ele>
        <time>2014-09-03T09:33:38Z</time>
      </trkpt>
      <trkpt lat="43.35803" lon="-0.56454">
        <ele>119.34082</ele>
        <time>2014-09-03T09:33:47Z</time>
      </trkpt>
    </trkseg>
  </trk>
</gpx>